<?xml version="1.0" encoding="UTF-8" standalone="no" ?>
<gpx xmlns="http://www.topografix.com/GPX/1/1" creator="MapSource 6.15.7" version="1.1" xmlns:xsi="http://www.w3.org/2001/XMLSchema-instance" xsi:schemaLocation="http://www.topografix.com/GPX/1/1 http://www.topografix.com/GPX/1/1/gpx.xsd">

  <metadata>
    <link href="http://www.garmin.com">
      <text>Garmin International</text>
    </link>
    <time>2009-11-02T17:36:56Z</time>
    <bounds maxlat="45.1083450" maxlon="10.0528270" minlat="45.0713670" minlon="10.0311860"/>
  </metadata>

  <wpt lat="45.1076666" lon="10.0369333">
    <ele>39.0000000</ele>
    <time>2009-11-02T17:35:52Z</time>
    <name>PARTENZA/ARRIVO</name>
    <cmt>Scolo Morto</cmt>
    <desc>Scolo Morto</desc>
    <sym>Bike Trail</sym>
    <extensions>
      <gpxx:WaypointExtension xmlns:gpxx="http://www.garmin.com/xmlschemas/GpxExtensions/v3">
        <gpxx:DisplayMode>SymbolAndName</gpxx:DisplayMode>
      </gpxx:WaypointExtension>
    </extensions>
  </wpt>

  <trk>
    <name>2009-11-01T09_2</name>
    <extensions>
      <gpxx:TrackExtension xmlns:gpxx="http://www.garmin.com/xmlschemas/GpxExtensions/v3">
        <gpxx:DisplayColor>White</gpxx:DisplayColor>
      </gpxx:TrackExtension>
    </extensions>
    <trkseg>
      <trkpt lat="45.1078300" lon="10.0350150">
        <ele>36.8000000</ele>
        <time>2009-11-01T09:21:23Z</time>
      </trkpt>
      <trkpt lat="45.1074240" lon="10.0348770">
        <ele>37.4000000</ele>
        <time>2009-11-01T09:21:29Z</time>
      </trkpt>
      <trkpt lat="45.1072870" lon="10.0344100">
        <ele>36.4000000</ele>
        <time>2009-11-01T09:21:35Z</time>
      </trkpt>
      <trkpt lat="45.1072870" lon="10.0343190">
        <ele>36.4000000</ele>
        <time>2009-11-01T09:21:36Z</time>
      </trkpt>
      <trkpt lat="45.1070390" lon="10.0340870">
        <ele>36.0000000</ele>
        <time>2009-11-01T09:21:42Z</time>
      </trkpt>
      <trkpt lat="45.1069770" lon="10.0340950">
        <ele>35.8000000</ele>
        <time>2009-11-01T09:21:43Z</time>
      </trkpt>
      <trkpt lat="45.1066620" lon="10.0341370">
        <ele>35.4000000</ele>
        <time>2009-11-01T09:21:48Z</time>
      </trkpt>
      <trkpt lat="45.1064160" lon="10.0341850">
        <ele>34.6000000</ele>
        <time>2009-11-01T09:21:52Z</time>
      </trkpt>
      <trkpt lat="45.1063120" lon="10.0342900">
        <ele>34.6000000</ele>
        <time>2009-11-01T09:21:54Z</time>
      </trkpt>
      <trkpt lat="45.1060260" lon="10.0346840">
        <ele>34.2000000</ele>
        <time>2009-11-01T09:22:00Z</time>
      </trkpt>
      <trkpt lat="45.1057860" lon="10.0350870">
        <ele>33.2000000</ele>
        <time>2009-11-01T09:22:06Z</time>
      </trkpt>
      <trkpt lat="45.1054920" lon="10.0354880">
        <ele>31.2000000</ele>
        <time>2009-11-01T09:22:11Z</time>
      </trkpt>
      <trkpt lat="45.1051600" lon="10.0357280">
        <ele>29.0000000</ele>
        <time>2009-11-01T09:22:16Z</time>
      </trkpt>
      <trkpt lat="45.1048250" lon="10.0360060">
        <ele>27.0000000</ele>
        <time>2009-11-01T09:22:23Z</time>
      </trkpt>
      <trkpt lat="45.1045880" lon="10.0361570">
        <ele>26.2000000</ele>
        <time>2009-11-01T09:22:30Z</time>
      </trkpt>
      <trkpt lat="45.1044530" lon="10.0362090">
        <ele>25.6000000</ele>
        <time>2009-11-01T09:22:38Z</time>
      </trkpt>
      <trkpt lat="45.1041020" lon="10.0362820">
        <ele>25.4000000</ele>
        <time>2009-11-01T09:22:50Z</time>
      </trkpt>
      <trkpt lat="45.1037310" lon="10.0363030">
        <ele>25.8000000</ele>
        <time>2009-11-01T09:23:00Z</time>
      </trkpt>
      <trkpt lat="45.1033410" lon="10.0363120">
        <ele>25.8000000</ele>
        <time>2009-11-01T09:23:09Z</time>
      </trkpt>
      <trkpt lat="45.1029500" lon="10.0363360">
        <ele>25.6000000</ele>
        <time>2009-11-01T09:23:17Z</time>
      </trkpt>
      <trkpt lat="45.1025640" lon="10.0363500">
        <ele>25.6000000</ele>
        <time>2009-11-01T09:23:25Z</time>
      </trkpt>
      <trkpt lat="45.1021720" lon="10.0363520">
        <ele>25.4000000</ele>
        <time>2009-11-01T09:23:33Z</time>
      </trkpt>
      <trkpt lat="45.1017930" lon="10.0362520">
        <ele>25.8000000</ele>
        <time>2009-11-01T09:23:41Z</time>
      </trkpt>
      <trkpt lat="45.1014260" lon="10.0361020">
        <ele>27.0000000</ele>
        <time>2009-11-01T09:23:48Z</time>
      </trkpt>
      <trkpt lat="45.1010700" lon="10.0358360">
        <ele>28.8000000</ele>
        <time>2009-11-01T09:23:57Z</time>
      </trkpt>
      <trkpt lat="45.1007550" lon="10.0355700">
        <ele>30.2000000</ele>
        <time>2009-11-01T09:24:05Z</time>
      </trkpt>
      <trkpt lat="45.1003980" lon="10.0353160">
        <ele>30.4000000</ele>
        <time>2009-11-01T09:24:14Z</time>
      </trkpt>
      <trkpt lat="45.1000870" lon="10.0350340">
        <ele>32.0000000</ele>
        <time>2009-11-01T09:24:22Z</time>
      </trkpt>
      <trkpt lat="45.0997840" lon="10.0347120">
        <ele>35.2000000</ele>
        <time>2009-11-01T09:24:35Z</time>
      </trkpt>
      <trkpt lat="45.0997670" lon="10.0346610">
        <ele>35.6000000</ele>
        <time>2009-11-01T09:24:37Z</time>
      </trkpt>
      <trkpt lat="45.0998440" lon="10.0345310">
        <ele>35.6000000</ele>
        <time>2009-11-01T09:24:43Z</time>
      </trkpt>
      <trkpt lat="45.0999920" lon="10.0344030">
        <ele>35.4000000</ele>
        <time>2009-11-01T09:24:50Z</time>
      </trkpt>
      <trkpt lat="45.0999970" lon="10.0343600">
        <ele>35.0000000</ele>
        <time>2009-11-01T09:24:51Z</time>
      </trkpt>
      <trkpt lat="45.0999690" lon="10.0341730">
        <ele>34.2000000</ele>
        <time>2009-11-01T09:24:54Z</time>
      </trkpt>
      <trkpt lat="45.0999080" lon="10.0338500">
        <ele>32.6000000</ele>
        <time>2009-11-01T09:24:58Z</time>
      </trkpt>
      <trkpt lat="45.0998130" lon="10.0332920">
        <ele>32.6000000</ele>
        <time>2009-11-01T09:25:05Z</time>
      </trkpt>
      <trkpt lat="45.0997250" lon="10.0327380">
        <ele>33.0000000</ele>
        <time>2009-11-01T09:25:13Z</time>
      </trkpt>
      <trkpt lat="45.0996400" lon="10.0321900">
        <ele>33.6000000</ele>
        <time>2009-11-01T09:25:21Z</time>
      </trkpt>
      <trkpt lat="45.0995610" lon="10.0316660">
        <ele>34.2000000</ele>
        <time>2009-11-01T09:25:29Z</time>
      </trkpt>
      <trkpt lat="45.0994820" lon="10.0312420">
        <ele>34.6000000</ele>
        <time>2009-11-01T09:25:36Z</time>
      </trkpt>
      <trkpt lat="45.0994360" lon="10.0311940">
        <ele>34.2000000</ele>
        <time>2009-11-01T09:25:38Z</time>
      </trkpt>
      <trkpt lat="45.0993160" lon="10.0312990">
        <ele>31.2000000</ele>
        <time>2009-11-01T09:25:42Z</time>
      </trkpt>
      <trkpt lat="45.0991340" lon="10.0314450">
        <ele>29.4000000</ele>
        <time>2009-11-01T09:25:46Z</time>
      </trkpt>
      <trkpt lat="45.0987910" lon="10.0316700">
        <ele>28.0000000</ele>
        <time>2009-11-01T09:25:53Z</time>
      </trkpt>
      <trkpt lat="45.0984610" lon="10.0319170">
        <ele>27.4000000</ele>
        <time>2009-11-01T09:26:00Z</time>
      </trkpt>
      <trkpt lat="45.0981770" lon="10.0320790">
        <ele>29.0000000</ele>
        <time>2009-11-01T09:26:07Z</time>
      </trkpt>
      <trkpt lat="45.0981550" lon="10.0322020">
        <ele>29.2000000</ele>
        <time>2009-11-01T09:26:10Z</time>
      </trkpt>
      <trkpt lat="45.0981700" lon="10.0322930">
        <ele>29.2000000</ele>
        <time>2009-11-01T09:26:12Z</time>
      </trkpt>
      <trkpt lat="45.0982340" lon="10.0327300">
        <ele>29.4000000</ele>
        <time>2009-11-01T09:26:21Z</time>
      </trkpt>
      <trkpt lat="45.0983010" lon="10.0332720">
        <ele>29.8000000</ele>
        <time>2009-11-01T09:26:31Z</time>
      </trkpt>
      <trkpt lat="45.0983670" lon="10.0337780">
        <ele>31.2000000</ele>
        <time>2009-11-01T09:26:41Z</time>
      </trkpt>
      <trkpt lat="45.0984590" lon="10.0342830">
        <ele>31.6000000</ele>
        <time>2009-11-01T09:26:52Z</time>
      </trkpt>
      <trkpt lat="45.0984840" lon="10.0348060">
        <ele>31.6000000</ele>
        <time>2009-11-01T09:27:02Z</time>
      </trkpt>
      <trkpt lat="45.0981070" lon="10.0348680">
        <ele>31.6000000</ele>
        <time>2009-11-01T09:27:11Z</time>
      </trkpt>
      <trkpt lat="45.0977460" lon="10.0349120">
        <ele>31.6000000</ele>
        <time>2009-11-01T09:27:19Z</time>
      </trkpt>
      <trkpt lat="45.0973720" lon="10.0349640">
        <ele>30.6000000</ele>
        <time>2009-11-01T09:27:27Z</time>
      </trkpt>
      <trkpt lat="45.0971110" lon="10.0350030">
        <ele>29.6000000</ele>
        <time>2009-11-01T09:27:33Z</time>
      </trkpt>
      <trkpt lat="45.0969970" lon="10.0349760">
        <ele>30.2000000</ele>
        <time>2009-11-01T09:27:36Z</time>
      </trkpt>
      <trkpt lat="45.0969600" lon="10.0349620">
        <ele>30.0000000</ele>
        <time>2009-11-01T09:27:37Z</time>
      </trkpt>
      <trkpt lat="45.0966210" lon="10.0349170">
        <ele>26.2000000</ele>
        <time>2009-11-01T09:27:43Z</time>
      </trkpt>
      <trkpt lat="45.0961990" lon="10.0349120">
        <ele>25.2000000</ele>
        <time>2009-11-01T09:27:49Z</time>
      </trkpt>
      <trkpt lat="45.0958170" lon="10.0349330">
        <ele>25.8000000</ele>
        <time>2009-11-01T09:27:55Z</time>
      </trkpt>
      <trkpt lat="45.0954050" lon="10.0349510">
        <ele>26.0000000</ele>
        <time>2009-11-01T09:28:03Z</time>
      </trkpt>
      <trkpt lat="45.0950230" lon="10.0349740">
        <ele>26.0000000</ele>
        <time>2009-11-01T09:28:12Z</time>
      </trkpt>
      <trkpt lat="45.0949110" lon="10.0349790">
        <ele>26.2000000</ele>
        <time>2009-11-01T09:28:15Z</time>
      </trkpt>
      <trkpt lat="45.0946450" lon="10.0349690">
        <ele>26.2000000</ele>
        <time>2009-11-01T09:28:22Z</time>
      </trkpt>
      <trkpt lat="45.0942610" lon="10.0348940">
        <ele>26.4000000</ele>
        <time>2009-11-01T09:28:32Z</time>
      </trkpt>
      <trkpt lat="45.0938930" lon="10.0348200">
        <ele>27.0000000</ele>
        <time>2009-11-01T09:28:42Z</time>
      </trkpt>
      <trkpt lat="45.0935080" lon="10.0347620">
        <ele>27.4000000</ele>
        <time>2009-11-01T09:28:53Z</time>
      </trkpt>
      <trkpt lat="45.0931200" lon="10.0347690">
        <ele>27.8000000</ele>
        <time>2009-11-01T09:29:05Z</time>
      </trkpt>
      <trkpt lat="45.0927340" lon="10.0348060">
        <ele>27.8000000</ele>
        <time>2009-11-01T09:29:18Z</time>
      </trkpt>
      <trkpt lat="45.0923690" lon="10.0348440">
        <ele>29.4000000</ele>
        <time>2009-11-01T09:29:29Z</time>
      </trkpt>
      <trkpt lat="45.0921770" lon="10.0348770">
        <ele>32.2000000</ele>
        <time>2009-11-01T09:29:36Z</time>
      </trkpt>
      <trkpt lat="45.0921810" lon="10.0347540">
        <ele>33.8000000</ele>
        <time>2009-11-01T09:29:44Z</time>
      </trkpt>
      <trkpt lat="45.0922430" lon="10.0346900">
        <ele>34.2000000</ele>
        <time>2009-11-01T09:29:49Z</time>
      </trkpt>
      <trkpt lat="45.0925330" lon="10.0343770">
        <ele>35.2000000</ele>
        <time>2009-11-01T09:30:15Z</time>
      </trkpt>
      <trkpt lat="45.0927850" lon="10.0340430">
        <ele>34.2000000</ele>
        <time>2009-11-01T09:30:33Z</time>
      </trkpt>
      <trkpt lat="45.0927980" lon="10.0339200">
        <ele>34.0000000</ele>
        <time>2009-11-01T09:30:36Z</time>
      </trkpt>
      <trkpt lat="45.0926110" lon="10.0337160">
        <ele>32.6000000</ele>
        <time>2009-11-01T09:30:43Z</time>
      </trkpt>
      <trkpt lat="45.0925740" lon="10.0337030">
        <ele>32.4000000</ele>
        <time>2009-11-01T09:30:44Z</time>
      </trkpt>
      <trkpt lat="45.0922670" lon="10.0334230">
        <ele>32.0000000</ele>
        <time>2009-11-01T09:30:55Z</time>
      </trkpt>
      <trkpt lat="45.0922530" lon="10.0330300">
        <ele>30.0000000</ele>
        <time>2009-11-01T09:31:02Z</time>
      </trkpt>
      <trkpt lat="45.0923570" lon="10.0330120">
        <ele>28.6000000</ele>
        <time>2009-11-01T09:31:05Z</time>
      </trkpt>
      <trkpt lat="45.0924860" lon="10.0329590">
        <ele>28.4000000</ele>
        <time>2009-11-01T09:31:08Z</time>
      </trkpt>
      <trkpt lat="45.0927140" lon="10.0328670">
        <ele>26.2000000</ele>
        <time>2009-11-01T09:31:14Z</time>
      </trkpt>
      <trkpt lat="45.0930800" lon="10.0328330">
        <ele>22.2000000</ele>
        <time>2009-11-01T09:31:24Z</time>
      </trkpt>
      <trkpt lat="45.0932990" lon="10.0325240">
        <ele>21.2000000</ele>
        <time>2009-11-01T09:31:35Z</time>
      </trkpt>
      <trkpt lat="45.0932600" lon="10.0322820">
        <ele>22.2000000</ele>
        <time>2009-11-01T09:31:41Z</time>
      </trkpt>
      <trkpt lat="45.0930700" lon="10.0322150">
        <ele>26.8000000</ele>
        <time>2009-11-01T09:31:48Z</time>
      </trkpt>
      <trkpt lat="45.0926980" lon="10.0322420">
        <ele>28.0000000</ele>
        <time>2009-11-01T09:31:59Z</time>
      </trkpt>
      <trkpt lat="45.0923260" lon="10.0322480">
        <ele>27.0000000</ele>
        <time>2009-11-01T09:32:09Z</time>
      </trkpt>
      <trkpt lat="45.0919050" lon="10.0322530">
        <ele>26.0000000</ele>
        <time>2009-11-01T09:32:18Z</time>
      </trkpt>
      <trkpt lat="45.0917120" lon="10.0322850">
        <ele>26.6000000</ele>
        <time>2009-11-01T09:32:22Z</time>
      </trkpt>
      <trkpt lat="45.0915440" lon="10.0323700">
        <ele>25.8000000</ele>
        <time>2009-11-01T09:32:26Z</time>
      </trkpt>
      <trkpt lat="45.0913410" lon="10.0324710">
        <ele>26.6000000</ele>
        <time>2009-11-01T09:32:30Z</time>
      </trkpt>
      <trkpt lat="45.0911790" lon="10.0324950">
        <ele>27.4000000</ele>
        <time>2009-11-01T09:32:33Z</time>
      </trkpt>
      <trkpt lat="45.0911350" lon="10.0325060">
        <ele>27.0000000</ele>
        <time>2009-11-01T09:32:34Z</time>
      </trkpt>
      <trkpt lat="45.0908130" lon="10.0326430">
        <ele>27.4000000</ele>
        <time>2009-11-01T09:32:40Z</time>
      </trkpt>
      <trkpt lat="45.0906610" lon="10.0326820">
        <ele>26.2000000</ele>
        <time>2009-11-01T09:32:43Z</time>
      </trkpt>
      <trkpt lat="45.0904030" lon="10.0326650">
        <ele>27.0000000</ele>
        <time>2009-11-01T09:32:48Z</time>
      </trkpt>
      <trkpt lat="45.0903550" lon="10.0326640">
        <ele>26.8000000</ele>
        <time>2009-11-01T09:32:49Z</time>
      </trkpt>
      <trkpt lat="45.0902200" lon="10.0327020">
        <ele>26.4000000</ele>
        <time>2009-11-01T09:32:52Z</time>
      </trkpt>
      <trkpt lat="45.0901150" lon="10.0327320">
        <ele>25.4000000</ele>
        <time>2009-11-01T09:32:55Z</time>
      </trkpt>
      <trkpt lat="45.0900340" lon="10.0327570">
        <ele>25.0000000</ele>
        <time>2009-11-01T09:32:57Z</time>
      </trkpt>
      <trkpt lat="45.0897280" lon="10.0328290">
        <ele>26.2000000</ele>
        <time>2009-11-01T09:33:03Z</time>
      </trkpt>
      <trkpt lat="45.0896560" lon="10.0328650">
        <ele>26.2000000</ele>
        <time>2009-11-01T09:33:05Z</time>
      </trkpt>
      <trkpt lat="45.0895780" lon="10.0329160">
        <ele>28.0000000</ele>
        <time>2009-11-01T09:33:08Z</time>
      </trkpt>
      <trkpt lat="45.0894140" lon="10.0329780">
        <ele>28.0000000</ele>
        <time>2009-11-01T09:33:14Z</time>
      </trkpt>
      <trkpt lat="45.0892870" lon="10.0330100">
        <ele>27.4000000</ele>
        <time>2009-11-01T09:33:16Z</time>
      </trkpt>
      <trkpt lat="45.0891500" lon="10.0330820">
        <ele>27.0000000</ele>
        <time>2009-11-01T09:33:18Z</time>
      </trkpt>
      <trkpt lat="45.0889160" lon="10.0331370">
        <ele>27.8000000</ele>
        <time>2009-11-01T09:33:22Z</time>
      </trkpt>
      <trkpt lat="45.0886700" lon="10.0331290">
        <ele>27.6000000</ele>
        <time>2009-11-01T09:33:27Z</time>
      </trkpt>
      <trkpt lat="45.0885390" lon="10.0331860">
        <ele>27.2000000</ele>
        <time>2009-11-01T09:33:30Z</time>
      </trkpt>
      <trkpt lat="45.0881920" lon="10.0333600">
        <ele>27.6000000</ele>
        <time>2009-11-01T09:33:37Z</time>
      </trkpt>
      <trkpt lat="45.0879170" lon="10.0335150">
        <ele>27.2000000</ele>
        <time>2009-11-01T09:33:44Z</time>
      </trkpt>
      <trkpt lat="45.0878230" lon="10.0335490">
        <ele>27.4000000</ele>
        <time>2009-11-01T09:33:46Z</time>
      </trkpt>
      <trkpt lat="45.0874520" lon="10.0337470">
        <ele>27.6000000</ele>
        <time>2009-11-01T09:33:54Z</time>
      </trkpt>
      <trkpt lat="45.0870990" lon="10.0339240">
        <ele>25.4000000</ele>
        <time>2009-11-01T09:34:02Z</time>
      </trkpt>
      <trkpt lat="45.0867580" lon="10.0341340">
        <ele>26.6000000</ele>
        <time>2009-11-01T09:34:09Z</time>
      </trkpt>
      <trkpt lat="45.0866750" lon="10.0341930">
        <ele>26.0000000</ele>
        <time>2009-11-01T09:34:11Z</time>
      </trkpt>
      <trkpt lat="45.0864070" lon="10.0343250">
        <ele>27.6000000</ele>
        <time>2009-11-01T09:34:17Z</time>
      </trkpt>
      <trkpt lat="45.0862590" lon="10.0344360">
        <ele>25.6000000</ele>
        <time>2009-11-01T09:34:21Z</time>
      </trkpt>
      <trkpt lat="45.0860820" lon="10.0345640">
        <ele>25.0000000</ele>
        <time>2009-11-01T09:34:25Z</time>
      </trkpt>
      <trkpt lat="45.0858130" lon="10.0347890">
        <ele>21.4000000</ele>
        <time>2009-11-01T09:34:32Z</time>
      </trkpt>
      <trkpt lat="45.0857560" lon="10.0348820">
        <ele>21.6000000</ele>
        <time>2009-11-01T09:34:34Z</time>
      </trkpt>
      <trkpt lat="45.0857140" lon="10.0349600">
        <ele>21.0000000</ele>
        <time>2009-11-01T09:34:36Z</time>
      </trkpt>
      <trkpt lat="45.0856850" lon="10.0349910">
        <ele>21.6000000</ele>
        <time>2009-11-01T09:34:37Z</time>
      </trkpt>
      <trkpt lat="45.0855640" lon="10.0351390">
        <ele>20.6000000</ele>
        <time>2009-11-01T09:34:42Z</time>
      </trkpt>
      <trkpt lat="45.0854860" lon="10.0352650">
        <ele>25.2000000</ele>
        <time>2009-11-01T09:34:45Z</time>
      </trkpt>
      <trkpt lat="45.0855270" lon="10.0353520">
        <ele>27.0000000</ele>
        <time>2009-11-01T09:34:48Z</time>
      </trkpt>
      <trkpt lat="45.0856820" lon="10.0356840">
        <ele>29.6000000</ele>
        <time>2009-11-01T09:34:56Z</time>
      </trkpt>
      <trkpt lat="45.0858710" lon="10.0361490">
        <ele>38.4000000</ele>
        <time>2009-11-01T09:35:08Z</time>
      </trkpt>
      <trkpt lat="45.0860300" lon="10.0366110">
        <ele>35.4000000</ele>
        <time>2009-11-01T09:35:22Z</time>
      </trkpt>
      <trkpt lat="45.0860380" lon="10.0366780">
        <ele>35.4000000</ele>
        <time>2009-11-01T09:35:24Z</time>
      </trkpt>
      <trkpt lat="45.0858220" lon="10.0368600">
        <ele>33.4000000</ele>
        <time>2009-11-01T09:35:30Z</time>
      </trkpt>
      <trkpt lat="45.0857810" lon="10.0368870">
        <ele>32.8000000</ele>
        <time>2009-11-01T09:35:31Z</time>
      </trkpt>
      <trkpt lat="45.0854350" lon="10.0370770">
        <ele>25.4000000</ele>
        <time>2009-11-01T09:35:45Z</time>
      </trkpt>
      <trkpt lat="45.0850750" lon="10.0372790">
        <ele>20.8000000</ele>
        <time>2009-11-01T09:35:56Z</time>
      </trkpt>
      <trkpt lat="45.0847580" lon="10.0371440">
        <ele>25.4000000</ele>
        <time>2009-11-01T09:36:05Z</time>
      </trkpt>
      <trkpt lat="45.0846330" lon="10.0366070">
        <ele>26.2000000</ele>
        <time>2009-11-01T09:36:13Z</time>
      </trkpt>
      <trkpt lat="45.0843460" lon="10.0366230">
        <ele>26.8000000</ele>
        <time>2009-11-01T09:36:21Z</time>
      </trkpt>
      <trkpt lat="45.0842950" lon="10.0366500">
        <ele>26.8000000</ele>
        <time>2009-11-01T09:36:22Z</time>
      </trkpt>
      <trkpt lat="45.0839310" lon="10.0368330">
        <ele>26.6000000</ele>
        <time>2009-11-01T09:36:30Z</time>
      </trkpt>
      <trkpt lat="45.0838090" lon="10.0368790">
        <ele>26.2000000</ele>
        <time>2009-11-01T09:36:33Z</time>
      </trkpt>
      <trkpt lat="45.0835580" lon="10.0370100">
        <ele>25.8000000</ele>
        <time>2009-11-01T09:36:39Z</time>
      </trkpt>
      <trkpt lat="45.0834360" lon="10.0370720">
        <ele>25.4000000</ele>
        <time>2009-11-01T09:36:42Z</time>
      </trkpt>
      <trkpt lat="45.0833320" lon="10.0371550">
        <ele>24.6000000</ele>
        <time>2009-11-01T09:36:45Z</time>
      </trkpt>
      <trkpt lat="45.0832350" lon="10.0372440">
        <ele>23.6000000</ele>
        <time>2009-11-01T09:36:48Z</time>
      </trkpt>
      <trkpt lat="45.0832060" lon="10.0372730">
        <ele>23.4000000</ele>
        <time>2009-11-01T09:36:49Z</time>
      </trkpt>
      <trkpt lat="45.0831310" lon="10.0373370">
        <ele>24.0000000</ele>
        <time>2009-11-01T09:36:51Z</time>
      </trkpt>
      <trkpt lat="45.0828980" lon="10.0374920">
        <ele>21.8000000</ele>
        <time>2009-11-01T09:36:59Z</time>
      </trkpt>
      <trkpt lat="45.0825560" lon="10.0377450">
        <ele>23.0000000</ele>
        <time>2009-11-01T09:37:06Z</time>
      </trkpt>
      <trkpt lat="45.0822460" lon="10.0380460">
        <ele>24.0000000</ele>
        <time>2009-11-01T09:37:13Z</time>
      </trkpt>
      <trkpt lat="45.0821830" lon="10.0381340">
        <ele>23.8000000</ele>
        <time>2009-11-01T09:37:15Z</time>
      </trkpt>
      <trkpt lat="45.0820200" lon="10.0382840">
        <ele>24.2000000</ele>
        <time>2009-11-01T09:37:19Z</time>
      </trkpt>
      <trkpt lat="45.0819290" lon="10.0383230">
        <ele>23.8000000</ele>
        <time>2009-11-01T09:37:21Z</time>
      </trkpt>
      <trkpt lat="45.0818860" lon="10.0383470">
        <ele>23.6000000</ele>
        <time>2009-11-01T09:37:22Z</time>
      </trkpt>
      <trkpt lat="45.0816440" lon="10.0385100">
        <ele>22.8000000</ele>
        <time>2009-11-01T09:37:28Z</time>
      </trkpt>
      <trkpt lat="45.0815490" lon="10.0385480">
        <ele>23.2000000</ele>
        <time>2009-11-01T09:37:30Z</time>
      </trkpt>
      <trkpt lat="45.0814700" lon="10.0386120">
        <ele>23.0000000</ele>
        <time>2009-11-01T09:37:32Z</time>
      </trkpt>
      <trkpt lat="45.0813900" lon="10.0386760">
        <ele>23.0000000</ele>
        <time>2009-11-01T09:37:34Z</time>
      </trkpt>
      <trkpt lat="45.0812180" lon="10.0387650">
        <ele>23.0000000</ele>
        <time>2009-11-01T09:37:38Z</time>
      </trkpt>
      <trkpt lat="45.0809660" lon="10.0388920">
        <ele>23.8000000</ele>
        <time>2009-11-01T09:37:43Z</time>
      </trkpt>
      <trkpt lat="45.0808500" lon="10.0389980">
        <ele>23.6000000</ele>
        <time>2009-11-01T09:37:46Z</time>
      </trkpt>
      <trkpt lat="45.0806380" lon="10.0391140">
        <ele>23.0000000</ele>
        <time>2009-11-01T09:37:51Z</time>
      </trkpt>
      <trkpt lat="45.0804920" lon="10.0391870">
        <ele>23.2000000</ele>
        <time>2009-11-01T09:37:54Z</time>
      </trkpt>
      <trkpt lat="45.0804390" lon="10.0392200">
        <ele>23.6000000</ele>
        <time>2009-11-01T09:37:55Z</time>
      </trkpt>
      <trkpt lat="45.0803130" lon="10.0393150">
        <ele>24.2000000</ele>
        <time>2009-11-01T09:37:58Z</time>
      </trkpt>
      <trkpt lat="45.0801370" lon="10.0394170">
        <ele>24.0000000</ele>
        <time>2009-11-01T09:38:02Z</time>
      </trkpt>
      <trkpt lat="45.0800090" lon="10.0394820">
        <ele>23.6000000</ele>
        <time>2009-11-01T09:38:05Z</time>
      </trkpt>
      <trkpt lat="45.0798950" lon="10.0395630">
        <ele>23.2000000</ele>
        <time>2009-11-01T09:38:08Z</time>
      </trkpt>
      <trkpt lat="45.0797880" lon="10.0396400">
        <ele>22.6000000</ele>
        <time>2009-11-01T09:38:11Z</time>
      </trkpt>
      <trkpt lat="45.0797610" lon="10.0396760">
        <ele>22.6000000</ele>
        <time>2009-11-01T09:38:12Z</time>
      </trkpt>
      <trkpt lat="45.0797320" lon="10.0397010">
        <ele>22.8000000</ele>
        <time>2009-11-01T09:38:13Z</time>
      </trkpt>
      <trkpt lat="45.0796180" lon="10.0397660">
        <ele>22.8000000</ele>
        <time>2009-11-01T09:38:16Z</time>
      </trkpt>
      <trkpt lat="45.0794730" lon="10.0398830">
        <ele>21.4000000</ele>
        <time>2009-11-01T09:38:20Z</time>
      </trkpt>
      <trkpt lat="45.0794370" lon="10.0399150">
        <ele>21.2000000</ele>
        <time>2009-11-01T09:38:21Z</time>
      </trkpt>
      <trkpt lat="45.0792820" lon="10.0400640">
        <ele>22.4000000</ele>
        <time>2009-11-01T09:38:25Z</time>
      </trkpt>
      <trkpt lat="45.0791240" lon="10.0401740">
        <ele>23.4000000</ele>
        <time>2009-11-01T09:38:29Z</time>
      </trkpt>
      <trkpt lat="45.0789800" lon="10.0400490">
        <ele>24.8000000</ele>
        <time>2009-11-01T09:38:34Z</time>
      </trkpt>
      <trkpt lat="45.0789370" lon="10.0399730">
        <ele>25.4000000</ele>
        <time>2009-11-01T09:38:36Z</time>
      </trkpt>
      <trkpt lat="45.0788460" lon="10.0399740">
        <ele>26.4000000</ele>
        <time>2009-11-01T09:38:40Z</time>
      </trkpt>
      <trkpt lat="45.0786050" lon="10.0400920">
        <ele>28.0000000</ele>
        <time>2009-11-01T09:38:49Z</time>
      </trkpt>
      <trkpt lat="45.0785120" lon="10.0400730">
        <ele>27.4000000</ele>
        <time>2009-11-01T09:38:52Z</time>
      </trkpt>
      <trkpt lat="45.0784780" lon="10.0400980">
        <ele>27.2000000</ele>
        <time>2009-11-01T09:38:53Z</time>
      </trkpt>
      <trkpt lat="45.0782230" lon="10.0404270">
        <ele>26.0000000</ele>
        <time>2009-11-01T09:39:05Z</time>
      </trkpt>
      <trkpt lat="45.0782050" lon="10.0405150">
        <ele>27.6000000</ele>
        <time>2009-11-01T09:39:10Z</time>
      </trkpt>
      <trkpt lat="45.0782060" lon="10.0405420">
        <ele>28.2000000</ele>
        <time>2009-11-01T09:39:13Z</time>
      </trkpt>
      <trkpt lat="45.0782570" lon="10.0409140">
        <ele>28.4000000</ele>
        <time>2009-11-01T09:39:21Z</time>
      </trkpt>
      <trkpt lat="45.0779150" lon="10.0410970">
        <ele>25.2000000</ele>
        <time>2009-11-01T09:39:31Z</time>
      </trkpt>
      <trkpt lat="45.0778050" lon="10.0412150">
        <ele>23.6000000</ele>
        <time>2009-11-01T09:39:35Z</time>
      </trkpt>
      <trkpt lat="45.0775910" lon="10.0413370">
        <ele>21.4000000</ele>
        <time>2009-11-01T09:39:41Z</time>
      </trkpt>
      <trkpt lat="45.0772100" lon="10.0414700">
        <ele>21.8000000</ele>
        <time>2009-11-01T09:39:52Z</time>
      </trkpt>
      <trkpt lat="45.0768330" lon="10.0416080">
        <ele>23.0000000</ele>
        <time>2009-11-01T09:40:01Z</time>
      </trkpt>
      <trkpt lat="45.0764450" lon="10.0417750">
        <ele>26.2000000</ele>
        <time>2009-11-01T09:40:09Z</time>
      </trkpt>
      <trkpt lat="45.0764070" lon="10.0417880">
        <ele>26.2000000</ele>
        <time>2009-11-01T09:40:10Z</time>
      </trkpt>
      <trkpt lat="45.0763110" lon="10.0422220">
        <ele>27.2000000</ele>
        <time>2009-11-01T09:40:19Z</time>
      </trkpt>
      <trkpt lat="45.0762880" lon="10.0422740">
        <ele>27.2000000</ele>
        <time>2009-11-01T09:40:20Z</time>
      </trkpt>
      <trkpt lat="45.0761510" lon="10.0424610">
        <ele>25.6000000</ele>
        <time>2009-11-01T09:40:25Z</time>
      </trkpt>
      <trkpt lat="45.0760340" lon="10.0424930">
        <ele>25.8000000</ele>
        <time>2009-11-01T09:40:28Z</time>
      </trkpt>
      <trkpt lat="45.0759830" lon="10.0424970">
        <ele>26.2000000</ele>
        <time>2009-11-01T09:40:29Z</time>
      </trkpt>
      <trkpt lat="45.0758010" lon="10.0422890">
        <ele>27.0000000</ele>
        <time>2009-11-01T09:40:34Z</time>
      </trkpt>
      <trkpt lat="45.0757270" lon="10.0421460">
        <ele>27.6000000</ele>
        <time>2009-11-01T09:40:37Z</time>
      </trkpt>
      <trkpt lat="45.0756680" lon="10.0420170">
        <ele>28.0000000</ele>
        <time>2009-11-01T09:40:40Z</time>
      </trkpt>
      <trkpt lat="45.0756320" lon="10.0419130">
        <ele>28.0000000</ele>
        <time>2009-11-01T09:40:42Z</time>
      </trkpt>
      <trkpt lat="45.0754740" lon="10.0418960">
        <ele>26.8000000</ele>
        <time>2009-11-01T09:40:46Z</time>
      </trkpt>
      <trkpt lat="45.0754310" lon="10.0419290">
        <ele>27.0000000</ele>
        <time>2009-11-01T09:40:47Z</time>
      </trkpt>
      <trkpt lat="45.0751420" lon="10.0421020">
        <ele>25.6000000</ele>
        <time>2009-11-01T09:40:54Z</time>
      </trkpt>
      <trkpt lat="45.0749280" lon="10.0421860">
        <ele>24.2000000</ele>
        <time>2009-11-01T09:40:59Z</time>
      </trkpt>
      <trkpt lat="45.0748090" lon="10.0422990">
        <ele>24.0000000</ele>
        <time>2009-11-01T09:41:02Z</time>
      </trkpt>
      <trkpt lat="45.0745850" lon="10.0423930">
        <ele>26.4000000</ele>
        <time>2009-11-01T09:41:07Z</time>
      </trkpt>
      <trkpt lat="45.0745530" lon="10.0424120">
        <ele>26.6000000</ele>
        <time>2009-11-01T09:41:08Z</time>
      </trkpt>
      <trkpt lat="45.0744400" lon="10.0424690">
        <ele>27.6000000</ele>
        <time>2009-11-01T09:41:11Z</time>
      </trkpt>
      <trkpt lat="45.0742670" lon="10.0425460">
        <ele>27.4000000</ele>
        <time>2009-11-01T09:41:15Z</time>
      </trkpt>
      <trkpt lat="45.0741670" lon="10.0426610">
        <ele>26.2000000</ele>
        <time>2009-11-01T09:41:18Z</time>
      </trkpt>
      <trkpt lat="45.0741050" lon="10.0427420">
        <ele>25.2000000</ele>
        <time>2009-11-01T09:41:20Z</time>
      </trkpt>
      <trkpt lat="45.0738360" lon="10.0431410">
        <ele>20.2000000</ele>
        <time>2009-11-01T09:41:30Z</time>
      </trkpt>
      <trkpt lat="45.0736610" lon="10.0433940">
        <ele>20.0000000</ele>
        <time>2009-11-01T09:41:36Z</time>
      </trkpt>
      <trkpt lat="45.0735550" lon="10.0434990">
        <ele>19.4000000</ele>
        <time>2009-11-01T09:41:39Z</time>
      </trkpt>
      <trkpt lat="45.0734610" lon="10.0436280">
        <ele>19.4000000</ele>
        <time>2009-11-01T09:41:42Z</time>
      </trkpt>
      <trkpt lat="45.0732880" lon="10.0438960">
        <ele>18.6000000</ele>
        <time>2009-11-01T09:41:48Z</time>
      </trkpt>
      <trkpt lat="45.0731570" lon="10.0440650">
        <ele>18.0000000</ele>
        <time>2009-11-01T09:41:52Z</time>
      </trkpt>
      <trkpt lat="45.0730240" lon="10.0442500">
        <ele>18.2000000</ele>
        <time>2009-11-01T09:41:56Z</time>
      </trkpt>
      <trkpt lat="45.0727600" lon="10.0446280">
        <ele>17.6000000</ele>
        <time>2009-11-01T09:42:04Z</time>
      </trkpt>
      <trkpt lat="45.0724600" lon="10.0449920">
        <ele>17.8000000</ele>
        <time>2009-11-01T09:42:12Z</time>
      </trkpt>
      <trkpt lat="45.0721770" lon="10.0453250">
        <ele>19.0000000</ele>
        <time>2009-11-01T09:42:19Z</time>
      </trkpt>
      <trkpt lat="45.0718620" lon="10.0456490">
        <ele>24.2000000</ele>
        <time>2009-11-01T09:42:26Z</time>
      </trkpt>
      <trkpt lat="45.0717470" lon="10.0458110">
        <ele>24.6000000</ele>
        <time>2009-11-01T09:42:30Z</time>
      </trkpt>
      <trkpt lat="45.0715930" lon="10.0460300">
        <ele>26.2000000</ele>
        <time>2009-11-01T09:42:40Z</time>
      </trkpt>
      <trkpt lat="45.0715670" lon="10.0460710">
        <ele>26.2000000</ele>
        <time>2009-11-01T09:42:42Z</time>
      </trkpt>
      <trkpt lat="45.0714850" lon="10.0461960">
        <ele>27.8000000</ele>
        <time>2009-11-01T09:42:50Z</time>
      </trkpt>
      <trkpt lat="45.0714760" lon="10.0462350">
        <ele>28.6000000</ele>
        <time>2009-11-01T09:42:52Z</time>
      </trkpt>
      <trkpt lat="45.0715230" lon="10.0463280">
        <ele>29.8000000</ele>
        <time>2009-11-01T09:43:00Z</time>
      </trkpt>
      <trkpt lat="45.0716040" lon="10.0464060">
        <ele>33.2000000</ele>
        <time>2009-11-01T09:43:17Z</time>
      </trkpt>
      <trkpt lat="45.0718030" lon="10.0464220">
        <ele>33.4000000</ele>
        <time>2009-11-01T09:43:25Z</time>
      </trkpt>
      <trkpt lat="45.0718330" lon="10.0465990">
        <ele>31.8000000</ele>
        <time>2009-11-01T09:43:29Z</time>
      </trkpt>
      <trkpt lat="45.0717540" lon="10.0467360">
        <ele>31.0000000</ele>
        <time>2009-11-01T09:43:32Z</time>
      </trkpt>
      <trkpt lat="45.0716040" lon="10.0469990">
        <ele>30.8000000</ele>
        <time>2009-11-01T09:43:38Z</time>
      </trkpt>
      <trkpt lat="45.0713850" lon="10.0474410">
        <ele>32.6000000</ele>
        <time>2009-11-01T09:43:48Z</time>
      </trkpt>
      <trkpt lat="45.0714580" lon="10.0473700">
        <ele>33.4000000</ele>
        <time>2009-11-01T09:43:56Z</time>
      </trkpt>
      <trkpt lat="45.0715910" lon="10.0471460">
        <ele>33.8000000</ele>
        <time>2009-11-01T09:44:01Z</time>
      </trkpt>
      <trkpt lat="45.0718280" lon="10.0467520">
        <ele>35.8000000</ele>
        <time>2009-11-01T09:44:10Z</time>
      </trkpt>
      <trkpt lat="45.0721240" lon="10.0464600">
        <ele>35.6000000</ele>
        <time>2009-11-01T09:44:20Z</time>
      </trkpt>
      <trkpt lat="45.0724900" lon="10.0464480">
        <ele>35.6000000</ele>
        <time>2009-11-01T09:44:28Z</time>
      </trkpt>
      <trkpt lat="45.0728680" lon="10.0464370">
        <ele>35.8000000</ele>
        <time>2009-11-01T09:44:36Z</time>
      </trkpt>
      <trkpt lat="45.0732510" lon="10.0464290">
        <ele>35.8000000</ele>
        <time>2009-11-01T09:44:44Z</time>
      </trkpt>
      <trkpt lat="45.0736200" lon="10.0464140">
        <ele>35.8000000</ele>
        <time>2009-11-01T09:44:52Z</time>
      </trkpt>
      <trkpt lat="45.0740060" lon="10.0464010">
        <ele>36.2000000</ele>
        <time>2009-11-01T09:45:01Z</time>
      </trkpt>
      <trkpt lat="45.0744030" lon="10.0463920">
        <ele>35.4000000</ele>
        <time>2009-11-01T09:45:10Z</time>
      </trkpt>
      <trkpt lat="45.0746600" lon="10.0463940">
        <ele>34.6000000</ele>
        <time>2009-11-01T09:45:16Z</time>
      </trkpt>
      <trkpt lat="45.0747900" lon="10.0463530">
        <ele>34.6000000</ele>
        <time>2009-11-01T09:45:19Z</time>
      </trkpt>
      <trkpt lat="45.0751750" lon="10.0461860">
        <ele>33.6000000</ele>
        <time>2009-11-01T09:45:28Z</time>
      </trkpt>
      <trkpt lat="45.0755510" lon="10.0460360">
        <ele>32.4000000</ele>
        <time>2009-11-01T09:45:37Z</time>
      </trkpt>
      <trkpt lat="45.0759070" lon="10.0459240">
        <ele>32.8000000</ele>
        <time>2009-11-01T09:45:45Z</time>
      </trkpt>
      <trkpt lat="45.0763050" lon="10.0458470">
        <ele>32.8000000</ele>
        <time>2009-11-01T09:45:54Z</time>
      </trkpt>
      <trkpt lat="45.0766890" lon="10.0458900">
        <ele>33.6000000</ele>
        <time>2009-11-01T09:46:03Z</time>
      </trkpt>
      <trkpt lat="45.0768340" lon="10.0459170">
        <ele>34.4000000</ele>
        <time>2009-11-01T09:46:07Z</time>
      </trkpt>
      <trkpt lat="45.0768170" lon="10.0461920">
        <ele>33.6000000</ele>
        <time>2009-11-01T09:46:13Z</time>
      </trkpt>
      <trkpt lat="45.0767570" lon="10.0467530">
        <ele>31.4000000</ele>
        <time>2009-11-01T09:46:20Z</time>
      </trkpt>
      <trkpt lat="45.0767460" lon="10.0473420">
        <ele>30.6000000</ele>
        <time>2009-11-01T09:46:27Z</time>
      </trkpt>
      <trkpt lat="45.0767530" lon="10.0476350">
        <ele>30.8000000</ele>
        <time>2009-11-01T09:46:31Z</time>
      </trkpt>
      <trkpt lat="45.0767350" lon="10.0478530">
        <ele>31.2000000</ele>
        <time>2009-11-01T09:46:34Z</time>
      </trkpt>
      <trkpt lat="45.0766900" lon="10.0483840">
        <ele>31.2000000</ele>
        <time>2009-11-01T09:46:42Z</time>
      </trkpt>
      <trkpt lat="45.0766400" lon="10.0489390">
        <ele>31.0000000</ele>
        <time>2009-11-01T09:46:51Z</time>
      </trkpt>
      <trkpt lat="45.0765650" lon="10.0494740">
        <ele>31.2000000</ele>
        <time>2009-11-01T09:47:00Z</time>
      </trkpt>
      <trkpt lat="45.0764770" lon="10.0499880">
        <ele>31.2000000</ele>
        <time>2009-11-01T09:47:09Z</time>
      </trkpt>
      <trkpt lat="45.0764660" lon="10.0500420">
        <ele>31.6000000</ele>
        <time>2009-11-01T09:47:10Z</time>
      </trkpt>
      <trkpt lat="45.0764250" lon="10.0502080">
        <ele>31.4000000</ele>
        <time>2009-11-01T09:47:13Z</time>
      </trkpt>
      <trkpt lat="45.0763330" lon="10.0504640">
        <ele>31.0000000</ele>
        <time>2009-11-01T09:47:18Z</time>
      </trkpt>
      <trkpt lat="45.0761980" lon="10.0509540">
        <ele>32.2000000</ele>
        <time>2009-11-01T09:47:29Z</time>
      </trkpt>
      <trkpt lat="45.0760910" lon="10.0514630">
        <ele>36.2000000</ele>
        <time>2009-11-01T09:47:43Z</time>
      </trkpt>
      <trkpt lat="45.0761160" lon="10.0515660">
        <ele>36.6000000</ele>
        <time>2009-11-01T09:47:49Z</time>
      </trkpt>
      <trkpt lat="45.0760660" lon="10.0519620">
        <ele>34.8000000</ele>
        <time>2009-11-01T09:48:01Z</time>
      </trkpt>
      <trkpt lat="45.0759370" lon="10.0524240">
        <ele>31.6000000</ele>
        <time>2009-11-01T09:48:08Z</time>
      </trkpt>
      <trkpt lat="45.0758890" lon="10.0526270">
        <ele>29.8000000</ele>
        <time>2009-11-01T09:48:11Z</time>
      </trkpt>
      <trkpt lat="45.0760320" lon="10.0528210">
        <ele>28.2000000</ele>
        <time>2009-11-01T09:48:17Z</time>
      </trkpt>
      <trkpt lat="45.0760700" lon="10.0528270">
        <ele>28.2000000</ele>
        <time>2009-11-01T09:48:18Z</time>
      </trkpt>
      <trkpt lat="45.0762120" lon="10.0526250">
        <ele>28.4000000</ele>
        <time>2009-11-01T09:48:23Z</time>
      </trkpt>
      <trkpt lat="45.0762580" lon="10.0524540">
        <ele>28.4000000</ele>
        <time>2009-11-01T09:48:26Z</time>
      </trkpt>
      <trkpt lat="45.0764150" lon="10.0519660">
        <ele>27.4000000</ele>
        <time>2009-11-01T09:48:35Z</time>
      </trkpt>
      <trkpt lat="45.0765430" lon="10.0515650">
        <ele>28.0000000</ele>
        <time>2009-11-01T09:48:42Z</time>
      </trkpt>
      <trkpt lat="45.0765810" lon="10.0514700">
        <ele>28.6000000</ele>
        <time>2009-11-01T09:48:44Z</time>
      </trkpt>
      <trkpt lat="45.0766480" lon="10.0511890">
        <ele>31.8000000</ele>
        <time>2009-11-01T09:48:51Z</time>
      </trkpt>
      <trkpt lat="45.0767000" lon="10.0509830">
        <ele>31.2000000</ele>
        <time>2009-11-01T09:48:57Z</time>
      </trkpt>
      <trkpt lat="45.0768610" lon="10.0504910">
        <ele>29.6000000</ele>
        <time>2009-11-01T09:49:08Z</time>
      </trkpt>
      <trkpt lat="45.0769650" lon="10.0499880">
        <ele>30.6000000</ele>
        <time>2009-11-01T09:49:18Z</time>
      </trkpt>
      <trkpt lat="45.0771220" lon="10.0494890">
        <ele>30.0000000</ele>
        <time>2009-11-01T09:49:28Z</time>
      </trkpt>
      <trkpt lat="45.0772870" lon="10.0490230">
        <ele>30.0000000</ele>
        <time>2009-11-01T09:49:38Z</time>
      </trkpt>
      <trkpt lat="45.0773220" lon="10.0484970">
        <ele>29.8000000</ele>
        <time>2009-11-01T09:49:48Z</time>
      </trkpt>
      <trkpt lat="45.0772620" lon="10.0480970">
        <ele>28.6000000</ele>
        <time>2009-11-01T09:49:54Z</time>
      </trkpt>
      <trkpt lat="45.0772620" lon="10.0480150">
        <ele>28.6000000</ele>
        <time>2009-11-01T09:49:55Z</time>
      </trkpt>
      <trkpt lat="45.0774810" lon="10.0478440">
        <ele>28.4000000</ele>
        <time>2009-11-01T09:50:02Z</time>
      </trkpt>
      <trkpt lat="45.0775600" lon="10.0478880">
        <ele>28.6000000</ele>
        <time>2009-11-01T09:50:04Z</time>
      </trkpt>
      <trkpt lat="45.0777210" lon="10.0479700">
        <ele>29.2000000</ele>
        <time>2009-11-01T09:50:08Z</time>
      </trkpt>
      <trkpt lat="45.0778850" lon="10.0478230">
        <ele>28.8000000</ele>
        <time>2009-11-01T09:50:14Z</time>
      </trkpt>
      <trkpt lat="45.0777450" lon="10.0475730">
        <ele>27.0000000</ele>
        <time>2009-11-01T09:50:20Z</time>
      </trkpt>
      <trkpt lat="45.0776550" lon="10.0475260">
        <ele>27.4000000</ele>
        <time>2009-11-01T09:50:22Z</time>
      </trkpt>
      <trkpt lat="45.0773060" lon="10.0473250">
        <ele>28.0000000</ele>
        <time>2009-11-01T09:50:31Z</time>
      </trkpt>
      <trkpt lat="45.0770330" lon="10.0471730">
        <ele>28.8000000</ele>
        <time>2009-11-01T09:50:38Z</time>
      </trkpt>
      <trkpt lat="45.0769720" lon="10.0470970">
        <ele>29.0000000</ele>
        <time>2009-11-01T09:50:40Z</time>
      </trkpt>
      <trkpt lat="45.0769440" lon="10.0468250">
        <ele>29.0000000</ele>
        <time>2009-11-01T09:50:45Z</time>
      </trkpt>
      <trkpt lat="45.0769480" lon="10.0465690">
        <ele>29.0000000</ele>
        <time>2009-11-01T09:50:50Z</time>
      </trkpt>
      <trkpt lat="45.0769460" lon="10.0460330">
        <ele>33.0000000</ele>
        <time>2009-11-01T09:51:02Z</time>
      </trkpt>
      <trkpt lat="45.0769400" lon="10.0456980">
        <ele>34.8000000</ele>
        <time>2009-11-01T09:51:13Z</time>
      </trkpt>
      <trkpt lat="45.0770640" lon="10.0457830">
        <ele>32.6000000</ele>
        <time>2009-11-01T09:51:17Z</time>
      </trkpt>
      <trkpt lat="45.0771620" lon="10.0458660">
        <ele>32.8000000</ele>
        <time>2009-11-01T09:51:19Z</time>
      </trkpt>
      <trkpt lat="45.0774350" lon="10.0460350">
        <ele>32.0000000</ele>
        <time>2009-11-01T09:51:25Z</time>
      </trkpt>
      <trkpt lat="45.0777910" lon="10.0462320">
        <ele>32.0000000</ele>
        <time>2009-11-01T09:51:35Z</time>
      </trkpt>
      <trkpt lat="45.0781510" lon="10.0464350">
        <ele>32.2000000</ele>
        <time>2009-11-01T09:51:44Z</time>
      </trkpt>
      <trkpt lat="45.0784970" lon="10.0466030">
        <ele>32.4000000</ele>
        <time>2009-11-01T09:51:52Z</time>
      </trkpt>
      <trkpt lat="45.0788760" lon="10.0467700">
        <ele>32.8000000</ele>
        <time>2009-11-01T09:52:01Z</time>
      </trkpt>
      <trkpt lat="45.0791680" lon="10.0468990">
        <ele>32.8000000</ele>
        <time>2009-11-01T09:52:08Z</time>
      </trkpt>
      <trkpt lat="45.0792420" lon="10.0469290">
        <ele>32.6000000</ele>
        <time>2009-11-01T09:52:10Z</time>
      </trkpt>
      <trkpt lat="45.0796200" lon="10.0470170">
        <ele>32.4000000</ele>
        <time>2009-11-01T09:52:20Z</time>
      </trkpt>
      <trkpt lat="45.0799850" lon="10.0468750">
        <ele>32.2000000</ele>
        <time>2009-11-01T09:52:30Z</time>
      </trkpt>
      <trkpt lat="45.0803200" lon="10.0466250">
        <ele>33.2000000</ele>
        <time>2009-11-01T09:52:48Z</time>
      </trkpt>
      <trkpt lat="45.0806490" lon="10.0466460">
        <ele>30.2000000</ele>
        <time>2009-11-01T09:52:56Z</time>
      </trkpt>
      <trkpt lat="45.0810350" lon="10.0465130">
        <ele>28.8000000</ele>
        <time>2009-11-01T09:53:03Z</time>
      </trkpt>
      <trkpt lat="45.0813980" lon="10.0463520">
        <ele>28.4000000</ele>
        <time>2009-11-01T09:53:11Z</time>
      </trkpt>
      <trkpt lat="45.0817220" lon="10.0460680">
        <ele>29.2000000</ele>
        <time>2009-11-01T09:53:20Z</time>
      </trkpt>
      <trkpt lat="45.0820330" lon="10.0457070">
        <ele>25.2000000</ele>
        <time>2009-11-01T09:53:30Z</time>
      </trkpt>
      <trkpt lat="45.0823330" lon="10.0454250">
        <ele>28.8000000</ele>
        <time>2009-11-01T09:53:38Z</time>
      </trkpt>
      <trkpt lat="45.0826460" lon="10.0451200">
        <ele>32.0000000</ele>
        <time>2009-11-01T09:53:48Z</time>
      </trkpt>
      <trkpt lat="45.0827210" lon="10.0450910">
        <ele>30.6000000</ele>
        <time>2009-11-01T09:53:54Z</time>
      </trkpt>
      <trkpt lat="45.0827240" lon="10.0451010">
        <ele>30.6000000</ele>
        <time>2009-11-01T09:54:34Z</time>
      </trkpt>
      <trkpt lat="45.0827740" lon="10.0451750">
        <ele>30.6000000</ele>
        <time>2009-11-01T09:54:38Z</time>
      </trkpt>
      <trkpt lat="45.0828980" lon="10.0454040">
        <ele>30.4000000</ele>
        <time>2009-11-01T09:54:44Z</time>
      </trkpt>
      <trkpt lat="45.0831310" lon="10.0457980">
        <ele>29.6000000</ele>
        <time>2009-11-01T09:54:52Z</time>
      </trkpt>
      <trkpt lat="45.0833080" lon="10.0460890">
        <ele>28.8000000</ele>
        <time>2009-11-01T09:54:58Z</time>
      </trkpt>
      <trkpt lat="45.0833890" lon="10.0461660">
        <ele>28.8000000</ele>
        <time>2009-11-01T09:55:00Z</time>
      </trkpt>
      <trkpt lat="45.0835630" lon="10.0461030">
        <ele>29.2000000</ele>
        <time>2009-11-01T09:55:04Z</time>
      </trkpt>
      <trkpt lat="45.0836890" lon="10.0460090">
        <ele>29.6000000</ele>
        <time>2009-11-01T09:55:07Z</time>
      </trkpt>
      <trkpt lat="45.0837230" lon="10.0459780">
        <ele>30.2000000</ele>
        <time>2009-11-01T09:55:08Z</time>
      </trkpt>
      <trkpt lat="45.0838380" lon="10.0459560">
        <ele>28.0000000</ele>
        <time>2009-11-01T09:55:16Z</time>
      </trkpt>
      <trkpt lat="45.0838700" lon="10.0459600">
        <ele>27.8000000</ele>
        <time>2009-11-01T09:55:18Z</time>
      </trkpt>
      <trkpt lat="45.0839980" lon="10.0457830">
        <ele>27.6000000</ele>
        <time>2009-11-01T09:55:24Z</time>
      </trkpt>
      <trkpt lat="45.0840210" lon="10.0457530">
        <ele>27.4000000</ele>
        <time>2009-11-01T09:55:25Z</time>
      </trkpt>
      <trkpt lat="45.0842680" lon="10.0454140">
        <ele>27.8000000</ele>
        <time>2009-11-01T09:55:41Z</time>
      </trkpt>
      <trkpt lat="45.0845750" lon="10.0451570">
        <ele>29.2000000</ele>
        <time>2009-11-01T09:55:53Z</time>
      </trkpt>
      <trkpt lat="45.0848520" lon="10.0448380">
        <ele>28.0000000</ele>
        <time>2009-11-01T09:56:03Z</time>
      </trkpt>
      <trkpt lat="45.0851260" lon="10.0444880">
        <ele>26.2000000</ele>
        <time>2009-11-01T09:56:12Z</time>
      </trkpt>
      <trkpt lat="45.0854450" lon="10.0441570">
        <ele>24.6000000</ele>
        <time>2009-11-01T09:56:21Z</time>
      </trkpt>
      <trkpt lat="45.0857430" lon="10.0438290">
        <ele>23.8000000</ele>
        <time>2009-11-01T09:56:30Z</time>
      </trkpt>
      <trkpt lat="45.0860240" lon="10.0436070">
        <ele>29.6000000</ele>
        <time>2009-11-01T09:57:23Z</time>
      </trkpt>
      <trkpt lat="45.0863200" lon="10.0432560">
        <ele>30.2000000</ele>
        <time>2009-11-01T09:57:31Z</time>
      </trkpt>
      <trkpt lat="45.0866040" lon="10.0429260">
        <ele>30.4000000</ele>
        <time>2009-11-01T09:57:39Z</time>
      </trkpt>
      <trkpt lat="45.0869030" lon="10.0425670">
        <ele>30.2000000</ele>
        <time>2009-11-01T09:57:49Z</time>
      </trkpt>
      <trkpt lat="45.0871830" lon="10.0422050">
        <ele>30.6000000</ele>
        <time>2009-11-01T09:57:57Z</time>
      </trkpt>
      <trkpt lat="45.0874230" lon="10.0418810">
        <ele>30.6000000</ele>
        <time>2009-11-01T09:58:04Z</time>
      </trkpt>
      <trkpt lat="45.0874660" lon="10.0418560">
        <ele>30.6000000</ele>
        <time>2009-11-01T09:58:05Z</time>
      </trkpt>
      <trkpt lat="45.0876020" lon="10.0419180">
        <ele>29.0000000</ele>
        <time>2009-11-01T09:58:08Z</time>
      </trkpt>
      <trkpt lat="45.0878150" lon="10.0420900">
        <ele>27.2000000</ele>
        <time>2009-11-01T09:58:13Z</time>
      </trkpt>
      <trkpt lat="45.0881430" lon="10.0423750">
        <ele>26.2000000</ele>
        <time>2009-11-01T09:58:21Z</time>
      </trkpt>
      <trkpt lat="45.0884520" lon="10.0426670">
        <ele>26.8000000</ele>
        <time>2009-11-01T09:58:29Z</time>
      </trkpt>
      <trkpt lat="45.0887600" lon="10.0429550">
        <ele>27.0000000</ele>
        <time>2009-11-01T09:58:37Z</time>
      </trkpt>
      <trkpt lat="45.0888830" lon="10.0430490">
        <ele>27.0000000</ele>
        <time>2009-11-01T09:58:40Z</time>
      </trkpt>
      <trkpt lat="45.0889720" lon="10.0430740">
        <ele>27.4000000</ele>
        <time>2009-11-01T09:58:43Z</time>
      </trkpt>
      <trkpt lat="45.0890620" lon="10.0432280">
        <ele>26.2000000</ele>
        <time>2009-11-01T09:58:49Z</time>
      </trkpt>
      <trkpt lat="45.0889700" lon="10.0433380">
        <ele>25.8000000</ele>
        <time>2009-11-01T09:58:52Z</time>
      </trkpt>
      <trkpt lat="45.0887720" lon="10.0435500">
        <ele>25.2000000</ele>
        <time>2009-11-01T09:58:58Z</time>
      </trkpt>
      <trkpt lat="45.0884360" lon="10.0438730">
        <ele>24.6000000</ele>
        <time>2009-11-01T09:59:08Z</time>
      </trkpt>
      <trkpt lat="45.0883930" lon="10.0438990">
        <ele>25.4000000</ele>
        <time>2009-11-01T09:59:09Z</time>
      </trkpt>
      <trkpt lat="45.0883210" lon="10.0439480">
        <ele>27.0000000</ele>
        <time>2009-11-01T09:59:11Z</time>
      </trkpt>
      <trkpt lat="45.0883170" lon="10.0441740">
        <ele>30.8000000</ele>
        <time>2009-11-01T09:59:18Z</time>
      </trkpt>
      <trkpt lat="45.0883510" lon="10.0442340">
        <ele>30.6000000</ele>
        <time>2009-11-01T09:59:20Z</time>
      </trkpt>
      <trkpt lat="45.0886440" lon="10.0442980">
        <ele>31.8000000</ele>
        <time>2009-11-01T09:59:35Z</time>
      </trkpt>
      <trkpt lat="45.0889580" lon="10.0440560">
        <ele>32.0000000</ele>
        <time>2009-11-01T09:59:46Z</time>
      </trkpt>
      <trkpt lat="45.0893310" lon="10.0438810">
        <ele>32.6000000</ele>
        <time>2009-11-01T09:59:57Z</time>
      </trkpt>
      <trkpt lat="45.0896980" lon="10.0437640">
        <ele>33.0000000</ele>
        <time>2009-11-01T10:00:07Z</time>
      </trkpt>
      <trkpt lat="45.0898230" lon="10.0436560">
        <ele>33.0000000</ele>
        <time>2009-11-01T10:00:11Z</time>
      </trkpt>
      <trkpt lat="45.0898950" lon="10.0433400">
        <ele>32.2000000</ele>
        <time>2009-11-01T10:00:17Z</time>
      </trkpt>
      <trkpt lat="45.0900400" lon="10.0428360">
        <ele>32.2000000</ele>
        <time>2009-11-01T10:00:27Z</time>
      </trkpt>
      <trkpt lat="45.0902120" lon="10.0423530">
        <ele>31.8000000</ele>
        <time>2009-11-01T10:00:37Z</time>
      </trkpt>
      <trkpt lat="45.0903810" lon="10.0418630">
        <ele>32.0000000</ele>
        <time>2009-11-01T10:00:47Z</time>
      </trkpt>
      <trkpt lat="45.0905410" lon="10.0414050">
        <ele>31.4000000</ele>
        <time>2009-11-01T10:00:56Z</time>
      </trkpt>
      <trkpt lat="45.0907060" lon="10.0409280">
        <ele>31.4000000</ele>
        <time>2009-11-01T10:01:06Z</time>
      </trkpt>
      <trkpt lat="45.0909330" lon="10.0406120">
        <ele>30.2000000</ele>
        <time>2009-11-01T10:01:15Z</time>
      </trkpt>
      <trkpt lat="45.0910450" lon="10.0405490">
        <ele>30.0000000</ele>
        <time>2009-11-01T10:01:17Z</time>
      </trkpt>
      <trkpt lat="45.0913060" lon="10.0404660">
        <ele>30.4000000</ele>
        <time>2009-11-01T10:01:22Z</time>
      </trkpt>
      <trkpt lat="45.0913590" lon="10.0404690">
        <ele>30.8000000</ele>
        <time>2009-11-01T10:01:23Z</time>
      </trkpt>
      <trkpt lat="45.0917110" lon="10.0404780">
        <ele>31.6000000</ele>
        <time>2009-11-01T10:01:30Z</time>
      </trkpt>
      <trkpt lat="45.0920760" lon="10.0405780">
        <ele>31.8000000</ele>
        <time>2009-11-01T10:01:42Z</time>
      </trkpt>
      <trkpt lat="45.0921880" lon="10.0409890">
        <ele>32.2000000</ele>
        <time>2009-11-01T10:01:52Z</time>
      </trkpt>
      <trkpt lat="45.0922170" lon="10.0410130">
        <ele>32.4000000</ele>
        <time>2009-11-01T10:01:53Z</time>
      </trkpt>
      <trkpt lat="45.0924630" lon="10.0410120">
        <ele>32.8000000</ele>
        <time>2009-11-01T10:02:00Z</time>
      </trkpt>
      <trkpt lat="45.0925740" lon="10.0409980">
        <ele>32.8000000</ele>
        <time>2009-11-01T10:02:03Z</time>
      </trkpt>
      <trkpt lat="45.0929520" lon="10.0408690">
        <ele>33.4000000</ele>
        <time>2009-11-01T10:02:14Z</time>
      </trkpt>
      <trkpt lat="45.0929300" lon="10.0403640">
        <ele>31.0000000</ele>
        <time>2009-11-01T10:02:25Z</time>
      </trkpt>
      <trkpt lat="45.0929650" lon="10.0398600">
        <ele>33.6000000</ele>
        <time>2009-11-01T10:02:37Z</time>
      </trkpt>
      <trkpt lat="45.0929550" lon="10.0398350">
        <ele>34.0000000</ele>
        <time>2009-11-01T10:02:38Z</time>
      </trkpt>
      <trkpt lat="45.0926510" lon="10.0396730">
        <ele>33.4000000</ele>
        <time>2009-11-01T10:02:47Z</time>
      </trkpt>
      <trkpt lat="45.0922860" lon="10.0396570">
        <ele>35.0000000</ele>
        <time>2009-11-01T10:02:56Z</time>
      </trkpt>
      <trkpt lat="45.0919420" lon="10.0398120">
        <ele>34.6000000</ele>
        <time>2009-11-01T10:03:05Z</time>
      </trkpt>
      <trkpt lat="45.0918120" lon="10.0398590">
        <ele>34.4000000</ele>
        <time>2009-11-01T10:03:08Z</time>
      </trkpt>
      <trkpt lat="45.0915570" lon="10.0398560">
        <ele>32.4000000</ele>
        <time>2009-11-01T10:03:14Z</time>
      </trkpt>
      <trkpt lat="45.0914360" lon="10.0398460">
        <ele>32.4000000</ele>
        <time>2009-11-01T10:03:17Z</time>
      </trkpt>
      <trkpt lat="45.0912790" lon="10.0398300">
        <ele>32.6000000</ele>
        <time>2009-11-01T10:03:21Z</time>
      </trkpt>
      <trkpt lat="45.0911810" lon="10.0399010">
        <ele>33.0000000</ele>
        <time>2009-11-01T10:03:24Z</time>
      </trkpt>
      <trkpt lat="45.0911130" lon="10.0400690">
        <ele>32.2000000</ele>
        <time>2009-11-01T10:03:28Z</time>
      </trkpt>
      <trkpt lat="45.0909580" lon="10.0403150">
        <ele>36.2000000</ele>
        <time>2009-11-01T10:03:46Z</time>
      </trkpt>
      <trkpt lat="45.0909340" lon="10.0402640">
        <ele>36.6000000</ele>
        <time>2009-11-01T10:04:13Z</time>
      </trkpt>
      <trkpt lat="45.0910370" lon="10.0399590">
        <ele>37.2000000</ele>
        <time>2009-11-01T10:04:23Z</time>
      </trkpt>
      <trkpt lat="45.0912170" lon="10.0394530">
        <ele>36.4000000</ele>
        <time>2009-11-01T10:04:30Z</time>
      </trkpt>
      <trkpt lat="45.0914040" lon="10.0389380">
        <ele>35.2000000</ele>
        <time>2009-11-01T10:04:39Z</time>
      </trkpt>
      <trkpt lat="45.0915660" lon="10.0384770">
        <ele>34.4000000</ele>
        <time>2009-11-01T10:04:48Z</time>
      </trkpt>
      <trkpt lat="45.0917390" lon="10.0379810">
        <ele>34.0000000</ele>
        <time>2009-11-01T10:04:58Z</time>
      </trkpt>
      <trkpt lat="45.0919100" lon="10.0374810">
        <ele>34.2000000</ele>
        <time>2009-11-01T10:05:08Z</time>
      </trkpt>
      <trkpt lat="45.0920790" lon="10.0369770">
        <ele>34.2000000</ele>
        <time>2009-11-01T10:05:18Z</time>
      </trkpt>
      <trkpt lat="45.0922360" lon="10.0365140">
        <ele>34.0000000</ele>
        <time>2009-11-01T10:05:27Z</time>
      </trkpt>
      <trkpt lat="45.0923960" lon="10.0360380">
        <ele>33.8000000</ele>
        <time>2009-11-01T10:05:37Z</time>
      </trkpt>
      <trkpt lat="45.0924980" lon="10.0358860">
        <ele>34.0000000</ele>
        <time>2009-11-01T10:05:41Z</time>
      </trkpt>
      <trkpt lat="45.0926570" lon="10.0359130">
        <ele>34.2000000</ele>
        <time>2009-11-01T10:05:45Z</time>
      </trkpt>
      <trkpt lat="45.0926960" lon="10.0359310">
        <ele>34.2000000</ele>
        <time>2009-11-01T10:05:46Z</time>
      </trkpt>
      <trkpt lat="45.0930580" lon="10.0360420">
        <ele>34.6000000</ele>
        <time>2009-11-01T10:05:55Z</time>
      </trkpt>
      <trkpt lat="45.0934250" lon="10.0360870">
        <ele>34.8000000</ele>
        <time>2009-11-01T10:06:04Z</time>
      </trkpt>
      <trkpt lat="45.0938170" lon="10.0361390">
        <ele>35.2000000</ele>
        <time>2009-11-01T10:06:14Z</time>
      </trkpt>
      <trkpt lat="45.0941770" lon="10.0361950">
        <ele>35.4000000</ele>
        <time>2009-11-01T10:06:23Z</time>
      </trkpt>
      <trkpt lat="45.0945530" lon="10.0362440">
        <ele>35.6000000</ele>
        <time>2009-11-01T10:06:32Z</time>
      </trkpt>
      <trkpt lat="45.0949410" lon="10.0362520">
        <ele>35.6000000</ele>
        <time>2009-11-01T10:06:43Z</time>
      </trkpt>
      <trkpt lat="45.0950510" lon="10.0358570">
        <ele>33.0000000</ele>
        <time>2009-11-01T10:06:54Z</time>
      </trkpt>
      <trkpt lat="45.0950910" lon="10.0358610">
        <ele>32.0000000</ele>
        <time>2009-11-01T10:06:55Z</time>
      </trkpt>
      <trkpt lat="45.0952120" lon="10.0359080">
        <ele>30.2000000</ele>
        <time>2009-11-01T10:06:58Z</time>
      </trkpt>
      <trkpt lat="45.0953050" lon="10.0359500">
        <ele>29.8000000</ele>
        <time>2009-11-01T10:07:00Z</time>
      </trkpt>
      <trkpt lat="45.0954330" lon="10.0360070">
        <ele>30.4000000</ele>
        <time>2009-11-01T10:07:03Z</time>
      </trkpt>
      <trkpt lat="45.0955850" lon="10.0359640">
        <ele>30.2000000</ele>
        <time>2009-11-01T10:07:07Z</time>
      </trkpt>
      <trkpt lat="45.0957880" lon="10.0358990">
        <ele>29.8000000</ele>
        <time>2009-11-01T10:07:12Z</time>
      </trkpt>
      <trkpt lat="45.0961600" lon="10.0359380">
        <ele>29.4000000</ele>
        <time>2009-11-01T10:07:22Z</time>
      </trkpt>
      <trkpt lat="45.0965050" lon="10.0361280">
        <ele>31.2000000</ele>
        <time>2009-11-01T10:07:33Z</time>
      </trkpt>
      <trkpt lat="45.0968440" lon="10.0363530">
        <ele>31.6000000</ele>
        <time>2009-11-01T10:07:45Z</time>
      </trkpt>
      <trkpt lat="45.0970730" lon="10.0367590">
        <ele>33.4000000</ele>
        <time>2009-11-01T10:08:02Z</time>
      </trkpt>
      <trkpt lat="45.0971700" lon="10.0366920">
        <ele>33.0000000</ele>
        <time>2009-11-01T10:08:07Z</time>
      </trkpt>
      <trkpt lat="45.0973320" lon="10.0364530">
        <ele>32.4000000</ele>
        <time>2009-11-01T10:08:15Z</time>
      </trkpt>
      <trkpt lat="45.0975410" lon="10.0362070">
        <ele>31.4000000</ele>
        <time>2009-11-01T10:08:25Z</time>
      </trkpt>
      <trkpt lat="45.0976300" lon="10.0362330">
        <ele>32.0000000</ele>
        <time>2009-11-01T10:08:29Z</time>
      </trkpt>
      <trkpt lat="45.0978910" lon="10.0365850">
        <ele>31.2000000</ele>
        <time>2009-11-01T10:08:41Z</time>
      </trkpt>
      <trkpt lat="45.0981390" lon="10.0369890">
        <ele>31.4000000</ele>
        <time>2009-11-01T10:08:50Z</time>
      </trkpt>
      <trkpt lat="45.0983820" lon="10.0373760">
        <ele>32.4000000</ele>
        <time>2009-11-01T10:08:58Z</time>
      </trkpt>
      <trkpt lat="45.0986230" lon="10.0377700">
        <ele>32.0000000</ele>
        <time>2009-11-01T10:09:06Z</time>
      </trkpt>
      <trkpt lat="45.0988950" lon="10.0381770">
        <ele>31.0000000</ele>
        <time>2009-11-01T10:09:15Z</time>
      </trkpt>
      <trkpt lat="45.0989670" lon="10.0382520">
        <ele>31.6000000</ele>
        <time>2009-11-01T10:09:17Z</time>
      </trkpt>
      <trkpt lat="45.0991650" lon="10.0384260">
        <ele>32.0000000</ele>
        <time>2009-11-01T10:09:23Z</time>
      </trkpt>
      <trkpt lat="45.0992040" lon="10.0384460">
        <ele>31.8000000</ele>
        <time>2009-11-01T10:09:24Z</time>
      </trkpt>
      <trkpt lat="45.0994860" lon="10.0385700">
        <ele>30.4000000</ele>
        <time>2009-11-01T10:09:31Z</time>
      </trkpt>
      <trkpt lat="45.0995750" lon="10.0385870">
        <ele>30.4000000</ele>
        <time>2009-11-01T10:09:33Z</time>
      </trkpt>
      <trkpt lat="45.0999090" lon="10.0386170">
        <ele>30.8000000</ele>
        <time>2009-11-01T10:09:41Z</time>
      </trkpt>
      <trkpt lat="45.0999490" lon="10.0386310">
        <ele>30.8000000</ele>
        <time>2009-11-01T10:09:42Z</time>
      </trkpt>
      <trkpt lat="45.1000230" lon="10.0386530">
        <ele>30.8000000</ele>
        <time>2009-11-01T10:09:44Z</time>
      </trkpt>
      <trkpt lat="45.1001590" lon="10.0386420">
        <ele>30.8000000</ele>
        <time>2009-11-01T10:09:48Z</time>
      </trkpt>
      <trkpt lat="45.1003350" lon="10.0386030">
        <ele>32.6000000</ele>
        <time>2009-11-01T10:09:53Z</time>
      </trkpt>
      <trkpt lat="45.1006320" lon="10.0383350">
        <ele>32.6000000</ele>
        <time>2009-11-01T10:10:03Z</time>
      </trkpt>
      <trkpt lat="45.1010090" lon="10.0383150">
        <ele>32.4000000</ele>
        <time>2009-11-01T10:10:13Z</time>
      </trkpt>
      <trkpt lat="45.1013810" lon="10.0382920">
        <ele>30.8000000</ele>
        <time>2009-11-01T10:10:23Z</time>
      </trkpt>
      <trkpt lat="45.1017760" lon="10.0382710">
        <ele>31.6000000</ele>
        <time>2009-11-01T10:10:33Z</time>
      </trkpt>
      <trkpt lat="45.1021580" lon="10.0382030">
        <ele>29.8000000</ele>
        <time>2009-11-01T10:10:43Z</time>
      </trkpt>
      <trkpt lat="45.1025350" lon="10.0380790">
        <ele>30.0000000</ele>
        <time>2009-11-01T10:10:53Z</time>
      </trkpt>
      <trkpt lat="45.1029170" lon="10.0379270">
        <ele>28.2000000</ele>
        <time>2009-11-01T10:11:03Z</time>
      </trkpt>
      <trkpt lat="45.1032670" lon="10.0378000">
        <ele>27.8000000</ele>
        <time>2009-11-01T10:11:12Z</time>
      </trkpt>
      <trkpt lat="45.1036540" lon="10.0377190">
        <ele>30.0000000</ele>
        <time>2009-11-01T10:11:34Z</time>
      </trkpt>
      <trkpt lat="45.1039900" lon="10.0376580">
        <ele>32.0000000</ele>
        <time>2009-11-01T10:11:54Z</time>
      </trkpt>
      <trkpt lat="45.1043750" lon="10.0376010">
        <ele>31.6000000</ele>
        <time>2009-11-01T10:12:05Z</time>
      </trkpt>
      <trkpt lat="45.1047450" lon="10.0375490">
        <ele>31.6000000</ele>
        <time>2009-11-01T10:12:15Z</time>
      </trkpt>
      <trkpt lat="45.1051010" lon="10.0374090">
        <ele>31.6000000</ele>
        <time>2009-11-01T10:12:25Z</time>
      </trkpt>
      <trkpt lat="45.1054250" lon="10.0370940">
        <ele>31.6000000</ele>
        <time>2009-11-01T10:12:37Z</time>
      </trkpt>
      <trkpt lat="45.1057210" lon="10.0367590">
        <ele>29.2000000</ele>
        <time>2009-11-01T10:12:48Z</time>
      </trkpt>
      <trkpt lat="45.1060420" lon="10.0365200">
        <ele>27.4000000</ele>
        <time>2009-11-01T10:12:54Z</time>
      </trkpt>
      <trkpt lat="45.1063020" lon="10.0363550">
        <ele>25.6000000</ele>
        <time>2009-11-01T10:12:59Z</time>
      </trkpt>
      <trkpt lat="45.1063910" lon="10.0363500">
        <ele>26.0000000</ele>
        <time>2009-11-01T10:13:01Z</time>
      </trkpt>
      <trkpt lat="45.1065230" lon="10.0367550">
        <ele>27.0000000</ele>
        <time>2009-11-01T10:13:08Z</time>
      </trkpt>
      <trkpt lat="45.1065460" lon="10.0368220">
        <ele>27.4000000</ele>
        <time>2009-11-01T10:13:09Z</time>
      </trkpt>
      <trkpt lat="45.1067100" lon="10.0373410">
        <ele>28.0000000</ele>
        <time>2009-11-01T10:13:18Z</time>
      </trkpt>
      <trkpt lat="45.1067620" lon="10.0375350">
        <ele>29.8000000</ele>
        <time>2009-11-01T10:13:22Z</time>
      </trkpt>
      <trkpt lat="45.1068830" lon="10.0376920">
        <ele>32.2000000</ele>
        <time>2009-11-01T10:13:27Z</time>
      </trkpt>
      <trkpt lat="45.1069500" lon="10.0377510">
        <ele>31.4000000</ele>
        <time>2009-11-01T10:13:30Z</time>
      </trkpt>
      <trkpt lat="45.1070820" lon="10.0379260">
        <ele>30.2000000</ele>
        <time>2009-11-01T10:13:40Z</time>
      </trkpt>
      <trkpt lat="45.1071750" lon="10.0377440">
        <ele>30.0000000</ele>
        <time>2009-11-01T10:13:45Z</time>
      </trkpt>
      <trkpt lat="45.1072900" lon="10.0375550">
        <ele>29.2000000</ele>
        <time>2009-11-01T10:13:53Z</time>
      </trkpt>
      <trkpt lat="45.1074070" lon="10.0373280">
        <ele>34.4000000</ele>
        <time>2009-11-01T10:14:02Z</time>
      </trkpt>
      <trkpt lat="45.1076680" lon="10.0369260">
        <ele>34.0000000</ele>
        <time>2009-11-01T10:14:17Z</time>
      </trkpt>
      <trkpt lat="45.1078850" lon="10.0364860">
        <ele>32.8000000</ele>
        <time>2009-11-01T10:14:30Z</time>
      </trkpt>
      <trkpt lat="45.1081390" lon="10.0360900">
        <ele>29.4000000</ele>
        <time>2009-11-01T10:14:44Z</time>
      </trkpt>
      <trkpt lat="45.1083390" lon="10.0356830">
        <ele>33.6000000</ele>
        <time>2009-11-01T10:15:02Z</time>
      </trkpt>
      <trkpt lat="45.1082780" lon="10.0356380">
        <ele>36.0000000</ele>
        <time>2009-11-01T10:16:23Z</time>
      </trkpt>
      <trkpt lat="45.1081580" lon="10.0353680">
        <ele>35.2000000</ele>
        <time>2009-11-01T10:16:32Z</time>
      </trkpt>
      <trkpt lat="45.1078840" lon="10.0350210">
        <ele>34.8000000</ele>
        <time>2009-11-01T10:16:43Z</time>
      </trkpt>
      <trkpt lat="45.1075130" lon="10.0349120">
        <ele>34.4000000</ele>
        <time>2009-11-01T10:16:55Z</time>
      </trkpt>
      <trkpt lat="45.1073100" lon="10.0345740">
        <ele>34.2000000</ele>
        <time>2009-11-01T10:17:06Z</time>
      </trkpt>
      <trkpt lat="45.1072730" lon="10.0341370">
        <ele>35.8000000</ele>
        <time>2009-11-01T10:17:15Z</time>
      </trkpt>
      <trkpt lat="45.1072210" lon="10.0340930">
        <ele>35.4000000</ele>
        <time>2009-11-01T10:17:17Z</time>
      </trkpt>
      <trkpt lat="45.1071590" lon="10.0340700">
        <ele>35.0000000</ele>
        <time>2009-11-01T10:17:19Z</time>
      </trkpt>
      <trkpt lat="45.1068490" lon="10.0340850">
        <ele>34.2000000</ele>
        <time>2009-11-01T10:17:28Z</time>
      </trkpt>
      <trkpt lat="45.1064900" lon="10.0341270">
        <ele>33.8000000</ele>
        <time>2009-11-01T10:17:38Z</time>
      </trkpt>
      <trkpt lat="45.1061920" lon="10.0344580">
        <ele>32.2000000</ele>
        <time>2009-11-01T10:17:48Z</time>
      </trkpt>
      <trkpt lat="45.1059090" lon="10.0348530">
        <ele>31.6000000</ele>
        <time>2009-11-01T10:17:58Z</time>
      </trkpt>
      <trkpt lat="45.1057090" lon="10.0352910">
        <ele>28.2000000</ele>
        <time>2009-11-01T10:18:05Z</time>
      </trkpt>
      <trkpt lat="45.1056580" lon="10.0353670">
        <ele>27.8000000</ele>
        <time>2009-11-01T10:18:06Z</time>
      </trkpt>
      <trkpt lat="45.1053580" lon="10.0355400">
        <ele>27.8000000</ele>
        <time>2009-11-01T10:18:10Z</time>
      </trkpt>
      <trkpt lat="45.1049900" lon="10.0358510">
        <ele>28.0000000</ele>
        <time>2009-11-01T10:18:16Z</time>
      </trkpt>
      <trkpt lat="45.1046660" lon="10.0361130">
        <ele>27.8000000</ele>
        <time>2009-11-01T10:18:21Z</time>
      </trkpt>
      <trkpt lat="45.1042850" lon="10.0362680">
        <ele>28.6000000</ele>
        <time>2009-11-01T10:18:27Z</time>
      </trkpt>
      <trkpt lat="45.1038730" lon="10.0363140">
        <ele>29.4000000</ele>
        <time>2009-11-01T10:18:34Z</time>
      </trkpt>
      <trkpt lat="45.1034690" lon="10.0363240">
        <ele>29.4000000</ele>
        <time>2009-11-01T10:18:41Z</time>
      </trkpt>
      <trkpt lat="45.1030570" lon="10.0363510">
        <ele>29.6000000</ele>
        <time>2009-11-01T10:18:48Z</time>
      </trkpt>
      <trkpt lat="45.1026490" lon="10.0363730">
        <ele>29.6000000</ele>
        <time>2009-11-01T10:18:55Z</time>
      </trkpt>
      <trkpt lat="45.1022640" lon="10.0363900">
        <ele>28.8000000</ele>
        <time>2009-11-01T10:19:02Z</time>
      </trkpt>
      <trkpt lat="45.1018630" lon="10.0363250">
        <ele>30.6000000</ele>
        <time>2009-11-01T10:19:09Z</time>
      </trkpt>
      <trkpt lat="45.1014780" lon="10.0361690">
        <ele>31.0000000</ele>
        <time>2009-11-01T10:19:16Z</time>
      </trkpt>
      <trkpt lat="45.1011340" lon="10.0359190">
        <ele>31.4000000</ele>
        <time>2009-11-01T10:19:23Z</time>
      </trkpt>
      <trkpt lat="45.1007910" lon="10.0356170">
        <ele>31.6000000</ele>
        <time>2009-11-01T10:19:31Z</time>
      </trkpt>
      <trkpt lat="45.1004550" lon="10.0353630">
        <ele>31.4000000</ele>
        <time>2009-11-01T10:19:39Z</time>
      </trkpt>
      <trkpt lat="45.1001340" lon="10.0350740">
        <ele>31.2000000</ele>
        <time>2009-11-01T10:19:47Z</time>
      </trkpt>
      <trkpt lat="45.0998180" lon="10.0347650">
        <ele>34.2000000</ele>
        <time>2009-11-01T10:19:58Z</time>
      </trkpt>
      <trkpt lat="45.0997790" lon="10.0346630">
        <ele>35.0000000</ele>
        <time>2009-11-01T10:20:01Z</time>
      </trkpt>
      <trkpt lat="45.0999940" lon="10.0344310">
        <ele>34.4000000</ele>
        <time>2009-11-01T10:20:07Z</time>
      </trkpt>
      <trkpt lat="45.0999970" lon="10.0341120">
        <ele>32.0000000</ele>
        <time>2009-11-01T10:20:11Z</time>
      </trkpt>
      <trkpt lat="45.0999610" lon="10.0339340">
        <ele>31.2000000</ele>
        <time>2009-11-01T10:20:13Z</time>
      </trkpt>
      <trkpt lat="45.0998670" lon="10.0333820">
        <ele>30.6000000</ele>
        <time>2009-11-01T10:20:20Z</time>
      </trkpt>
      <trkpt lat="45.0997680" lon="10.0328360">
        <ele>30.6000000</ele>
        <time>2009-11-01T10:20:29Z</time>
      </trkpt>
      <trkpt lat="45.0996830" lon="10.0323270">
        <ele>30.8000000</ele>
        <time>2009-11-01T10:20:36Z</time>
      </trkpt>
      <trkpt lat="45.0995840" lon="10.0317710">
        <ele>31.0000000</ele>
        <time>2009-11-01T10:20:44Z</time>
      </trkpt>
      <trkpt lat="45.0994830" lon="10.0312330">
        <ele>30.8000000</ele>
        <time>2009-11-01T10:20:52Z</time>
      </trkpt>
      <trkpt lat="45.0994640" lon="10.0311860">
        <ele>31.0000000</ele>
        <time>2009-11-01T10:20:53Z</time>
      </trkpt>
      <trkpt lat="45.0993310" lon="10.0313180">
        <ele>29.4000000</ele>
        <time>2009-11-01T10:22:43Z</time>
      </trkpt>
      <trkpt lat="45.0990120" lon="10.0315240">
        <ele>28.0000000</ele>
        <time>2009-11-01T10:22:50Z</time>
      </trkpt>
      <trkpt lat="45.0986790" lon="10.0317410">
        <ele>27.4000000</ele>
        <time>2009-11-01T10:22:57Z</time>
      </trkpt>
      <trkpt lat="45.0983410" lon="10.0319770">
        <ele>28.0000000</ele>
        <time>2009-11-01T10:23:04Z</time>
      </trkpt>
      <trkpt lat="45.0981710" lon="10.0320670">
        <ele>29.8000000</ele>
        <time>2009-11-01T10:23:08Z</time>
      </trkpt>
      <trkpt lat="45.0981580" lon="10.0323160">
        <ele>30.2000000</ele>
        <time>2009-11-01T10:23:12Z</time>
      </trkpt>
      <trkpt lat="45.0982430" lon="10.0328390">
        <ele>31.0000000</ele>
        <time>2009-11-01T10:23:20Z</time>
      </trkpt>
      <trkpt lat="45.0982950" lon="10.0332610">
        <ele>31.8000000</ele>
        <time>2009-11-01T10:23:27Z</time>
      </trkpt>
      <trkpt lat="45.0983090" lon="10.0333730">
        <ele>31.8000000</ele>
        <time>2009-11-01T10:23:29Z</time>
      </trkpt>
      <trkpt lat="45.0983690" lon="10.0338790">
        <ele>34.2000000</ele>
        <time>2009-11-01T10:23:38Z</time>
      </trkpt>
      <trkpt lat="45.0984220" lon="10.0342120">
        <ele>34.8000000</ele>
        <time>2009-11-01T10:23:44Z</time>
      </trkpt>
      <trkpt lat="45.0984700" lon="10.0344000">
        <ele>34.8000000</ele>
        <time>2009-11-01T10:23:47Z</time>
      </trkpt>
      <trkpt lat="45.0984800" lon="10.0344640">
        <ele>34.8000000</ele>
        <time>2009-11-01T10:23:48Z</time>
      </trkpt>
      <trkpt lat="45.0985040" lon="10.0346590">
        <ele>35.0000000</ele>
        <time>2009-11-01T10:23:51Z</time>
      </trkpt>
      <trkpt lat="45.0983970" lon="10.0348320">
        <ele>34.8000000</ele>
        <time>2009-11-01T10:23:55Z</time>
      </trkpt>
      <trkpt lat="45.0983050" lon="10.0348370">
        <ele>34.8000000</ele>
        <time>2009-11-01T10:23:57Z</time>
      </trkpt>
      <trkpt lat="45.0980250" lon="10.0348680">
        <ele>34.2000000</ele>
        <time>2009-11-01T10:24:03Z</time>
      </trkpt>
      <trkpt lat="45.0976470" lon="10.0349260">
        <ele>32.2000000</ele>
        <time>2009-11-01T10:24:11Z</time>
      </trkpt>
      <trkpt lat="45.0972690" lon="10.0349750">
        <ele>32.0000000</ele>
        <time>2009-11-01T10:24:19Z</time>
      </trkpt>
      <trkpt lat="45.0970860" lon="10.0350010">
        <ele>31.8000000</ele>
        <time>2009-11-01T10:24:23Z</time>
      </trkpt>
      <trkpt lat="45.0968940" lon="10.0349440">
        <ele>31.0000000</ele>
        <time>2009-11-01T10:24:27Z</time>
      </trkpt>
      <trkpt lat="45.0968350" lon="10.0349370">
        <ele>30.2000000</ele>
        <time>2009-11-01T10:24:28Z</time>
      </trkpt>
      <trkpt lat="45.0965450" lon="10.0349030">
        <ele>27.2000000</ele>
        <time>2009-11-01T10:24:32Z</time>
      </trkpt>
      <trkpt lat="45.0964650" lon="10.0349010">
        <ele>26.6000000</ele>
        <time>2009-11-01T10:24:33Z</time>
      </trkpt>
      <trkpt lat="45.0961240" lon="10.0349430">
        <ele>24.2000000</ele>
        <time>2009-11-01T10:24:38Z</time>
      </trkpt>
      <trkpt lat="45.0957440" lon="10.0349930">
        <ele>21.6000000</ele>
        <time>2009-11-01T10:24:45Z</time>
      </trkpt>
      <trkpt lat="45.0953370" lon="10.0350210">
        <ele>21.2000000</ele>
        <time>2009-11-01T10:24:53Z</time>
      </trkpt>
      <trkpt lat="45.0949350" lon="10.0350510">
        <ele>21.4000000</ele>
        <time>2009-11-01T10:25:01Z</time>
      </trkpt>
      <trkpt lat="45.0945730" lon="10.0350250">
        <ele>23.0000000</ele>
        <time>2009-11-01T10:25:08Z</time>
      </trkpt>
      <trkpt lat="45.0941760" lon="10.0349380">
        <ele>24.4000000</ele>
        <time>2009-11-01T10:25:16Z</time>
      </trkpt>
      <trkpt lat="45.0937960" lon="10.0348470">
        <ele>27.4000000</ele>
        <time>2009-11-01T10:25:24Z</time>
      </trkpt>
      <trkpt lat="45.0934100" lon="10.0347950">
        <ele>28.8000000</ele>
        <time>2009-11-01T10:25:33Z</time>
      </trkpt>
      <trkpt lat="45.0933700" lon="10.0347960">
        <ele>28.8000000</ele>
        <time>2009-11-01T10:25:34Z</time>
      </trkpt>
      <trkpt lat="45.0930370" lon="10.0348150">
        <ele>28.8000000</ele>
        <time>2009-11-01T10:25:42Z</time>
      </trkpt>
      <trkpt lat="45.0926510" lon="10.0348460">
        <ele>29.0000000</ele>
        <time>2009-11-01T10:25:51Z</time>
      </trkpt>
      <trkpt lat="45.0922600" lon="10.0348900">
        <ele>30.8000000</ele>
        <time>2009-11-01T10:26:00Z</time>
      </trkpt>
      <trkpt lat="45.0921690" lon="10.0348900">
        <ele>31.6000000</ele>
        <time>2009-11-01T10:26:03Z</time>
      </trkpt>
      <trkpt lat="45.0921460" lon="10.0347800">
        <ele>33.0000000</ele>
        <time>2009-11-01T10:26:09Z</time>
      </trkpt>
      <trkpt lat="45.0921720" lon="10.0347800">
        <ele>36.0000000</ele>
        <time>2009-11-01T10:30:00Z</time>
      </trkpt>
      <trkpt lat="45.0924250" lon="10.0345000">
        <ele>36.0000000</ele>
        <time>2009-11-01T10:31:11Z</time>
      </trkpt>
      <trkpt lat="45.0927480" lon="10.0341840">
        <ele>36.2000000</ele>
        <time>2009-11-01T10:31:20Z</time>
      </trkpt>
      <trkpt lat="45.0927780" lon="10.0341450">
        <ele>36.0000000</ele>
        <time>2009-11-01T10:31:21Z</time>
      </trkpt>
      <trkpt lat="45.0927550" lon="10.0337470">
        <ele>34.2000000</ele>
        <time>2009-11-01T10:31:29Z</time>
      </trkpt>
      <trkpt lat="45.0926200" lon="10.0336770">
        <ele>33.4000000</ele>
        <time>2009-11-01T10:31:32Z</time>
      </trkpt>
      <trkpt lat="45.0924730" lon="10.0336160">
        <ele>32.8000000</ele>
        <time>2009-11-01T10:31:34Z</time>
      </trkpt>
      <trkpt lat="45.0923840" lon="10.0335580">
        <ele>32.4000000</ele>
        <time>2009-11-01T10:31:37Z</time>
      </trkpt>
      <trkpt lat="45.0923440" lon="10.0335220">
        <ele>32.4000000</ele>
        <time>2009-11-01T10:31:38Z</time>
      </trkpt>
      <trkpt lat="45.0922520" lon="10.0332670">
        <ele>30.4000000</ele>
        <time>2009-11-01T10:31:42Z</time>
      </trkpt>
      <trkpt lat="45.0922070" lon="10.0331100">
        <ele>29.2000000</ele>
        <time>2009-11-01T10:31:44Z</time>
      </trkpt>
      <trkpt lat="45.0922490" lon="10.0329680">
        <ele>26.4000000</ele>
        <time>2009-11-01T10:31:47Z</time>
      </trkpt>
      <trkpt lat="45.0923640" lon="10.0329130">
        <ele>24.0000000</ele>
        <time>2009-11-01T10:31:51Z</time>
      </trkpt>
      <trkpt lat="45.0925320" lon="10.0328690">
        <ele>25.0000000</ele>
        <time>2009-11-01T10:31:54Z</time>
      </trkpt>
      <trkpt lat="45.0927580" lon="10.0328320">
        <ele>25.2000000</ele>
        <time>2009-11-01T10:31:58Z</time>
      </trkpt>
      <trkpt lat="45.0929050" lon="10.0328220">
        <ele>25.8000000</ele>
        <time>2009-11-01T10:32:01Z</time>
      </trkpt>
      <trkpt lat="45.0932310" lon="10.0328130">
        <ele>27.8000000</ele>
        <time>2009-11-01T10:32:08Z</time>
      </trkpt>
      <trkpt lat="45.0932980" lon="10.0327810">
        <ele>28.4000000</ele>
        <time>2009-11-01T10:32:10Z</time>
      </trkpt>
      <trkpt lat="45.0933420" lon="10.0327050">
        <ele>27.6000000</ele>
        <time>2009-11-01T10:32:12Z</time>
      </trkpt>
      <trkpt lat="45.0933700" lon="10.0326100">
        <ele>25.8000000</ele>
        <time>2009-11-01T10:32:14Z</time>
      </trkpt>
      <trkpt lat="45.0933760" lon="10.0323720">
        <ele>23.4000000</ele>
        <time>2009-11-01T10:32:19Z</time>
      </trkpt>
      <trkpt lat="45.0933600" lon="10.0323420">
        <ele>22.2000000</ele>
        <time>2009-11-01T10:32:20Z</time>
      </trkpt>
      <trkpt lat="45.0932730" lon="10.0323290">
        <ele>20.6000000</ele>
        <time>2009-11-01T10:32:22Z</time>
      </trkpt>
      <trkpt lat="45.0930600" lon="10.0323270">
        <ele>18.2000000</ele>
        <time>2009-11-01T10:32:26Z</time>
      </trkpt>
      <trkpt lat="45.0929630" lon="10.0323390">
        <ele>16.8000000</ele>
        <time>2009-11-01T10:32:28Z</time>
      </trkpt>
      <trkpt lat="45.0929130" lon="10.0323390">
        <ele>16.0000000</ele>
        <time>2009-11-01T10:32:29Z</time>
      </trkpt>
      <trkpt lat="45.0925500" lon="10.0323280">
        <ele>16.8000000</ele>
        <time>2009-11-01T10:32:36Z</time>
      </trkpt>
      <trkpt lat="45.0924960" lon="10.0323160">
        <ele>17.2000000</ele>
        <time>2009-11-01T10:32:37Z</time>
      </trkpt>
      <trkpt lat="45.0921410" lon="10.0323180">
        <ele>18.4000000</ele>
        <time>2009-11-01T10:32:44Z</time>
      </trkpt>
      <trkpt lat="45.0919980" lon="10.0322810">
        <ele>21.2000000</ele>
        <time>2009-11-01T10:32:48Z</time>
      </trkpt>
      <trkpt lat="45.0918050" lon="10.0322680">
        <ele>31.8000000</ele>
        <time>2009-11-01T10:33:35Z</time>
      </trkpt>
      <trkpt lat="45.0914760" lon="10.0323890">
        <ele>26.4000000</ele>
        <time>2009-11-01T10:33:41Z</time>
      </trkpt>
      <trkpt lat="45.0912500" lon="10.0324940">
        <ele>24.8000000</ele>
        <time>2009-11-01T10:33:45Z</time>
      </trkpt>
      <trkpt lat="45.0911290" lon="10.0325130">
        <ele>25.0000000</ele>
        <time>2009-11-01T10:33:47Z</time>
      </trkpt>
      <trkpt lat="45.0909550" lon="10.0325770">
        <ele>24.8000000</ele>
        <time>2009-11-01T10:33:50Z</time>
      </trkpt>
      <trkpt lat="45.0907780" lon="10.0326290">
        <ele>24.0000000</ele>
        <time>2009-11-01T10:33:53Z</time>
      </trkpt>
      <trkpt lat="45.0904040" lon="10.0326680">
        <ele>22.8000000</ele>
        <time>2009-11-01T10:33:59Z</time>
      </trkpt>
      <trkpt lat="45.0903470" lon="10.0326780">
        <ele>22.4000000</ele>
        <time>2009-11-01T10:34:00Z</time>
      </trkpt>
      <trkpt lat="45.0902140" lon="10.0327050">
        <ele>21.0000000</ele>
        <time>2009-11-01T10:34:02Z</time>
      </trkpt>
      <trkpt lat="45.0899900" lon="10.0327750">
        <ele>21.4000000</ele>
        <time>2009-11-01T10:34:06Z</time>
      </trkpt>
      <trkpt lat="45.0897660" lon="10.0328610">
        <ele>21.8000000</ele>
        <time>2009-11-01T10:34:10Z</time>
      </trkpt>
      <trkpt lat="45.0896120" lon="10.0329020">
        <ele>21.4000000</ele>
        <time>2009-11-01T10:34:13Z</time>
      </trkpt>
      <trkpt lat="45.0894880" lon="10.0329560">
        <ele>20.6000000</ele>
        <time>2009-11-01T10:34:16Z</time>
      </trkpt>
      <trkpt lat="45.0891860" lon="10.0330620">
        <ele>21.8000000</ele>
        <time>2009-11-01T10:34:20Z</time>
      </trkpt>
      <trkpt lat="45.0891200" lon="10.0330830">
        <ele>22.2000000</ele>
        <time>2009-11-01T10:34:21Z</time>
      </trkpt>
      <trkpt lat="45.0888720" lon="10.0331110">
        <ele>23.8000000</ele>
        <time>2009-11-01T10:34:26Z</time>
      </trkpt>
      <trkpt lat="45.0886430" lon="10.0331210">
        <ele>25.4000000</ele>
        <time>2009-11-01T10:34:30Z</time>
      </trkpt>
      <trkpt lat="45.0884910" lon="10.0331950">
        <ele>26.4000000</ele>
        <time>2009-11-01T10:34:33Z</time>
      </trkpt>
      <trkpt lat="45.0882360" lon="10.0333210">
        <ele>24.4000000</ele>
        <time>2009-11-01T10:34:38Z</time>
      </trkpt>
      <trkpt lat="45.0881310" lon="10.0333760">
        <ele>24.2000000</ele>
        <time>2009-11-01T10:34:40Z</time>
      </trkpt>
      <trkpt lat="45.0880280" lon="10.0334410">
        <ele>25.4000000</ele>
        <time>2009-11-01T10:34:42Z</time>
      </trkpt>
      <trkpt lat="45.0877620" lon="10.0335370">
        <ele>27.0000000</ele>
        <time>2009-11-01T10:34:47Z</time>
      </trkpt>
      <trkpt lat="45.0873950" lon="10.0337470">
        <ele>30.0000000</ele>
        <time>2009-11-01T10:34:54Z</time>
      </trkpt>
      <trkpt lat="45.0873420" lon="10.0337720">
        <ele>29.6000000</ele>
        <time>2009-11-01T10:34:55Z</time>
      </trkpt>
      <trkpt lat="45.0871780" lon="10.0338360">
        <ele>31.0000000</ele>
        <time>2009-11-01T10:34:58Z</time>
      </trkpt>
      <trkpt lat="45.0870240" lon="10.0339250">
        <ele>30.6000000</ele>
        <time>2009-11-01T10:35:01Z</time>
      </trkpt>
      <trkpt lat="45.0866660" lon="10.0341660">
        <ele>31.0000000</ele>
        <time>2009-11-01T10:35:08Z</time>
      </trkpt>
      <trkpt lat="45.0864690" lon="10.0342520">
        <ele>32.0000000</ele>
        <time>2009-11-01T10:35:12Z</time>
      </trkpt>
      <trkpt lat="45.0863850" lon="10.0343040">
        <ele>31.8000000</ele>
        <time>2009-11-01T10:35:14Z</time>
      </trkpt>
      <trkpt lat="45.0863050" lon="10.0343680">
        <ele>31.4000000</ele>
        <time>2009-11-01T10:35:16Z</time>
      </trkpt>
      <trkpt lat="45.0861930" lon="10.0344590">
        <ele>28.2000000</ele>
        <time>2009-11-01T10:35:19Z</time>
      </trkpt>
      <trkpt lat="45.0861180" lon="10.0345160">
        <ele>27.8000000</ele>
        <time>2009-11-01T10:35:21Z</time>
      </trkpt>
      <trkpt lat="45.0860440" lon="10.0345870">
        <ele>26.8000000</ele>
        <time>2009-11-01T10:35:23Z</time>
      </trkpt>
      <trkpt lat="45.0859660" lon="10.0346520">
        <ele>25.4000000</ele>
        <time>2009-11-01T10:35:25Z</time>
      </trkpt>
      <trkpt lat="45.0857210" lon="10.0348460">
        <ele>24.0000000</ele>
        <time>2009-11-01T10:35:30Z</time>
      </trkpt>
      <trkpt lat="45.0856650" lon="10.0349420">
        <ele>25.4000000</ele>
        <time>2009-11-01T10:35:33Z</time>
      </trkpt>
      <trkpt lat="45.0856150" lon="10.0350300">
        <ele>25.4000000</ele>
        <time>2009-11-01T10:35:34Z</time>
      </trkpt>
      <trkpt lat="45.0855560" lon="10.0350950">
        <ele>25.0000000</ele>
        <time>2009-11-01T10:35:37Z</time>
      </trkpt>
      <trkpt lat="45.0854070" lon="10.0352270">
        <ele>36.2000000</ele>
        <time>2009-11-01T10:37:03Z</time>
      </trkpt>
      <trkpt lat="45.0854010" lon="10.0352590">
        <ele>36.0000000</ele>
        <time>2009-11-01T10:37:04Z</time>
      </trkpt>
      <trkpt lat="45.0856430" lon="10.0356240">
        <ele>35.4000000</ele>
        <time>2009-11-01T10:37:13Z</time>
      </trkpt>
      <trkpt lat="45.0857720" lon="10.0359440">
        <ele>36.6000000</ele>
        <time>2009-11-01T10:37:17Z</time>
      </trkpt>
      <trkpt lat="45.0858140" lon="10.0360560">
        <ele>36.6000000</ele>
        <time>2009-11-01T10:37:20Z</time>
      </trkpt>
      <trkpt lat="45.0858450" lon="10.0361210">
        <ele>37.2000000</ele>
        <time>2009-11-01T10:37:21Z</time>
      </trkpt>
      <trkpt lat="45.0860110" lon="10.0365800">
        <ele>35.8000000</ele>
        <time>2009-11-01T10:37:27Z</time>
      </trkpt>
      <trkpt lat="45.0860110" lon="10.0365800">
        <ele>36.2000000</ele>
        <time>2009-11-01T10:37:28Z</time>
      </trkpt>
      <trkpt lat="45.0860140" lon="10.0366340">
        <ele>36.4000000</ele>
        <time>2009-11-01T10:37:29Z</time>
      </trkpt>
      <trkpt lat="45.0858650" lon="10.0367950">
        <ele>35.8000000</ele>
        <time>2009-11-01T10:37:33Z</time>
      </trkpt>
      <trkpt lat="45.0857030" lon="10.0368970">
        <ele>34.6000000</ele>
        <time>2009-11-01T10:37:35Z</time>
      </trkpt>
      <trkpt lat="45.0853970" lon="10.0370610">
        <ele>32.2000000</ele>
        <time>2009-11-01T10:37:42Z</time>
      </trkpt>
      <trkpt lat="45.0850210" lon="10.0372780">
        <ele>29.0000000</ele>
        <time>2009-11-01T10:37:50Z</time>
      </trkpt>
      <trkpt lat="45.0848220" lon="10.0373240">
        <ele>28.6000000</ele>
        <time>2009-11-01T10:37:53Z</time>
      </trkpt>
      <trkpt lat="45.0847380" lon="10.0372690">
        <ele>27.0000000</ele>
        <time>2009-11-01T10:37:56Z</time>
      </trkpt>
      <trkpt lat="45.0846790" lon="10.0371230">
        <ele>25.4000000</ele>
        <time>2009-11-01T10:37:58Z</time>
      </trkpt>
      <trkpt lat="45.0846510" lon="10.0368430">
        <ele>24.8000000</ele>
        <time>2009-11-01T10:38:01Z</time>
      </trkpt>
      <trkpt lat="45.0846420" lon="10.0367640">
        <ele>25.0000000</ele>
        <time>2009-11-01T10:38:02Z</time>
      </trkpt>
      <trkpt lat="45.0845950" lon="10.0365550">
        <ele>24.8000000</ele>
        <time>2009-11-01T10:38:05Z</time>
      </trkpt>
      <trkpt lat="45.0842600" lon="10.0365890">
        <ele>22.4000000</ele>
        <time>2009-11-01T10:38:13Z</time>
      </trkpt>
      <trkpt lat="45.0838990" lon="10.0367930">
        <ele>18.2000000</ele>
        <time>2009-11-01T10:38:20Z</time>
      </trkpt>
      <trkpt lat="45.0834890" lon="10.0370110">
        <ele>15.0000000</ele>
        <time>2009-11-01T10:38:27Z</time>
      </trkpt>
      <trkpt lat="45.0834380" lon="10.0370410">
        <ele>13.8000000</ele>
        <time>2009-11-01T10:38:29Z</time>
      </trkpt>
      <trkpt lat="45.0831870" lon="10.0372510">
        <ele>16.8000000</ele>
        <time>2009-11-01T10:38:34Z</time>
      </trkpt>
      <trkpt lat="45.0830850" lon="10.0373310">
        <ele>17.4000000</ele>
        <time>2009-11-01T10:38:36Z</time>
      </trkpt>
      <trkpt lat="45.0828240" lon="10.0375190">
        <ele>18.4000000</ele>
        <time>2009-11-01T10:38:41Z</time>
      </trkpt>
      <trkpt lat="45.0824590" lon="10.0378080">
        <ele>20.0000000</ele>
        <time>2009-11-01T10:38:47Z</time>
      </trkpt>
      <trkpt lat="45.0823580" lon="10.0378960">
        <ele>20.2000000</ele>
        <time>2009-11-01T10:38:50Z</time>
      </trkpt>
      <trkpt lat="45.0821790" lon="10.0380990">
        <ele>21.8000000</ele>
        <time>2009-11-01T10:38:54Z</time>
      </trkpt>
      <trkpt lat="45.0820910" lon="10.0381950">
        <ele>22.6000000</ele>
        <time>2009-11-01T10:38:55Z</time>
      </trkpt>
      <trkpt lat="45.0819940" lon="10.0382750">
        <ele>22.4000000</ele>
        <time>2009-11-01T10:38:58Z</time>
      </trkpt>
      <trkpt lat="45.0818340" lon="10.0383620">
        <ele>21.8000000</ele>
        <time>2009-11-01T10:39:01Z</time>
      </trkpt>
      <trkpt lat="45.0816370" lon="10.0385090">
        <ele>20.6000000</ele>
        <time>2009-11-01T10:39:05Z</time>
      </trkpt>
      <trkpt lat="45.0814710" lon="10.0385880">
        <ele>21.4000000</ele>
        <time>2009-11-01T10:39:08Z</time>
      </trkpt>
      <trkpt lat="45.0813270" lon="10.0387040">
        <ele>20.4000000</ele>
        <time>2009-11-01T10:39:11Z</time>
      </trkpt>
      <trkpt lat="45.0811240" lon="10.0388100">
        <ele>18.2000000</ele>
        <time>2009-11-01T10:39:15Z</time>
      </trkpt>
      <trkpt lat="45.0809130" lon="10.0389200">
        <ele>18.6000000</ele>
        <time>2009-11-01T10:39:18Z</time>
      </trkpt>
      <trkpt lat="45.0807760" lon="10.0390500">
        <ele>18.0000000</ele>
        <time>2009-11-01T10:39:22Z</time>
      </trkpt>
      <trkpt lat="45.0805180" lon="10.0391740">
        <ele>17.6000000</ele>
        <time>2009-11-01T10:39:26Z</time>
      </trkpt>
      <trkpt lat="45.0803600" lon="10.0392700">
        <ele>17.2000000</ele>
        <time>2009-11-01T10:39:29Z</time>
      </trkpt>
      <trkpt lat="45.0802590" lon="10.0393560">
        <ele>16.6000000</ele>
        <time>2009-11-01T10:39:31Z</time>
      </trkpt>
      <trkpt lat="45.0800390" lon="10.0394560">
        <ele>16.8000000</ele>
        <time>2009-11-01T10:39:36Z</time>
      </trkpt>
      <trkpt lat="45.0799380" lon="10.0395170">
        <ele>17.6000000</ele>
        <time>2009-11-01T10:39:37Z</time>
      </trkpt>
      <trkpt lat="45.0797370" lon="10.0396570">
        <ele>19.8000000</ele>
        <time>2009-11-01T10:39:41Z</time>
      </trkpt>
      <trkpt lat="45.0796430" lon="10.0397290">
        <ele>19.4000000</ele>
        <time>2009-11-01T10:39:43Z</time>
      </trkpt>
      <trkpt lat="45.0795410" lon="10.0397950">
        <ele>19.2000000</ele>
        <time>2009-11-01T10:39:45Z</time>
      </trkpt>
      <trkpt lat="45.0793950" lon="10.0399070">
        <ele>20.4000000</ele>
        <time>2009-11-01T10:39:48Z</time>
      </trkpt>
      <trkpt lat="45.0793470" lon="10.0399480">
        <ele>20.6000000</ele>
        <time>2009-11-01T10:39:50Z</time>
      </trkpt>
      <trkpt lat="45.0791170" lon="10.0401740">
        <ele>20.0000000</ele>
        <time>2009-11-01T10:39:54Z</time>
      </trkpt>
      <trkpt lat="45.0790330" lon="10.0402210">
        <ele>19.6000000</ele>
        <time>2009-11-01T10:39:56Z</time>
      </trkpt>
      <trkpt lat="45.0790130" lon="10.0401730">
        <ele>18.8000000</ele>
        <time>2009-11-01T10:39:57Z</time>
      </trkpt>
      <trkpt lat="45.0789470" lon="10.0400040">
        <ele>20.0000000</ele>
        <time>2009-11-01T10:40:01Z</time>
      </trkpt>
      <trkpt lat="45.0788530" lon="10.0399700">
        <ele>20.8000000</ele>
        <time>2009-11-01T10:40:04Z</time>
      </trkpt>
      <trkpt lat="45.0787450" lon="10.0400530">
        <ele>21.6000000</ele>
        <time>2009-11-01T10:40:06Z</time>
      </trkpt>
      <trkpt lat="45.0786500" lon="10.0400930">
        <ele>22.8000000</ele>
        <time>2009-11-01T10:40:08Z</time>
      </trkpt>
      <trkpt lat="45.0785640" lon="10.0400660">
        <ele>22.2000000</ele>
        <time>2009-11-01T10:40:10Z</time>
      </trkpt>
      <trkpt lat="45.0784060" lon="10.0401470">
        <ele>21.6000000</ele>
        <time>2009-11-01T10:40:14Z</time>
      </trkpt>
      <trkpt lat="45.0783720" lon="10.0401770">
        <ele>21.6000000</ele>
        <time>2009-11-01T10:40:16Z</time>
      </trkpt>
      <trkpt lat="45.0783060" lon="10.0402390">
        <ele>21.4000000</ele>
        <time>2009-11-01T10:40:17Z</time>
      </trkpt>
      <trkpt lat="45.0782240" lon="10.0403760">
        <ele>22.6000000</ele>
        <time>2009-11-01T10:40:21Z</time>
      </trkpt>
      <trkpt lat="45.0781970" lon="10.0404710">
        <ele>24.2000000</ele>
        <time>2009-11-01T10:40:22Z</time>
      </trkpt>
      <trkpt lat="45.0782100" lon="10.0405390">
        <ele>25.2000000</ele>
        <time>2009-11-01T10:40:24Z</time>
      </trkpt>
      <trkpt lat="45.0782010" lon="10.0409640">
        <ele>25.0000000</ele>
        <time>2009-11-01T10:40:33Z</time>
      </trkpt>
      <trkpt lat="45.0781130" lon="10.0409880">
        <ele>24.6000000</ele>
        <time>2009-11-01T10:40:34Z</time>
      </trkpt>
      <trkpt lat="45.0778380" lon="10.0411630">
        <ele>22.0000000</ele>
        <time>2009-11-01T10:40:41Z</time>
      </trkpt>
      <trkpt lat="45.0777310" lon="10.0412690">
        <ele>21.0000000</ele>
        <time>2009-11-01T10:40:45Z</time>
      </trkpt>
      <trkpt lat="45.0776460" lon="10.0413160">
        <ele>21.0000000</ele>
        <time>2009-11-01T10:40:46Z</time>
      </trkpt>
      <trkpt lat="45.0775140" lon="10.0413750">
        <ele>20.2000000</ele>
        <time>2009-11-01T10:40:49Z</time>
      </trkpt>
      <trkpt lat="45.0773890" lon="10.0414310">
        <ele>19.8000000</ele>
        <time>2009-11-01T10:40:52Z</time>
      </trkpt>
      <trkpt lat="45.0771980" lon="10.0414980">
        <ele>18.6000000</ele>
        <time>2009-11-01T10:40:57Z</time>
      </trkpt>
      <trkpt lat="45.0771620" lon="10.0415060">
        <ele>18.2000000</ele>
        <time>2009-11-01T10:40:58Z</time>
      </trkpt>
      <trkpt lat="45.0768000" lon="10.0416280">
        <ele>18.6000000</ele>
        <time>2009-11-01T10:41:07Z</time>
      </trkpt>
      <trkpt lat="45.0767590" lon="10.0416460">
        <ele>18.4000000</ele>
        <time>2009-11-01T10:41:08Z</time>
      </trkpt>
      <trkpt lat="45.0764110" lon="10.0417680">
        <ele>19.2000000</ele>
        <time>2009-11-01T10:41:16Z</time>
      </trkpt>
      <trkpt lat="45.0763680" lon="10.0417930">
        <ele>19.2000000</ele>
        <time>2009-11-01T10:41:17Z</time>
      </trkpt>
      <trkpt lat="45.0763350" lon="10.0420100">
        <ele>20.4000000</ele>
        <time>2009-11-01T10:41:21Z</time>
      </trkpt>
      <trkpt lat="45.0763390" lon="10.0420810">
        <ele>20.6000000</ele>
        <time>2009-11-01T10:41:22Z</time>
      </trkpt>
      <trkpt lat="45.0763080" lon="10.0422190">
        <ele>20.8000000</ele>
        <time>2009-11-01T10:41:24Z</time>
      </trkpt>
      <trkpt lat="45.0762490" lon="10.0423360">
        <ele>21.2000000</ele>
        <time>2009-11-01T10:41:26Z</time>
      </trkpt>
      <trkpt lat="45.0761740" lon="10.0424470">
        <ele>21.6000000</ele>
        <time>2009-11-01T10:41:28Z</time>
      </trkpt>
      <trkpt lat="45.0760330" lon="10.0424960">
        <ele>21.2000000</ele>
        <time>2009-11-01T10:41:31Z</time>
      </trkpt>
      <trkpt lat="45.0759830" lon="10.0425090">
        <ele>20.8000000</ele>
        <time>2009-11-01T10:41:32Z</time>
      </trkpt>
      <trkpt lat="45.0758020" lon="10.0422960">
        <ele>22.8000000</ele>
        <time>2009-11-01T10:41:37Z</time>
      </trkpt>
      <trkpt lat="45.0757500" lon="10.0421810">
        <ele>23.0000000</ele>
        <time>2009-11-01T10:41:39Z</time>
      </trkpt>
      <trkpt lat="45.0756520" lon="10.0419750">
        <ele>23.6000000</ele>
        <time>2009-11-01T10:41:43Z</time>
      </trkpt>
      <trkpt lat="45.0755870" lon="10.0418570">
        <ele>23.6000000</ele>
        <time>2009-11-01T10:41:45Z</time>
      </trkpt>
      <trkpt lat="45.0754790" lon="10.0418320">
        <ele>23.2000000</ele>
        <time>2009-11-01T10:41:47Z</time>
      </trkpt>
      <trkpt lat="45.0753320" lon="10.0419540">
        <ele>22.6000000</ele>
        <time>2009-11-01T10:41:50Z</time>
      </trkpt>
      <trkpt lat="45.0751400" lon="10.0420910">
        <ele>22.0000000</ele>
        <time>2009-11-01T10:41:54Z</time>
      </trkpt>
      <trkpt lat="45.0750890" lon="10.0421150">
        <ele>22.0000000</ele>
        <time>2009-11-01T10:41:55Z</time>
      </trkpt>
      <trkpt lat="45.0748220" lon="10.0422420">
        <ele>22.0000000</ele>
        <time>2009-11-01T10:42:00Z</time>
      </trkpt>
      <trkpt lat="45.0747770" lon="10.0422880">
        <ele>22.0000000</ele>
        <time>2009-11-01T10:42:01Z</time>
      </trkpt>
      <trkpt lat="45.0746330" lon="10.0423580">
        <ele>22.0000000</ele>
        <time>2009-11-01T10:42:04Z</time>
      </trkpt>
      <trkpt lat="45.0745850" lon="10.0423740">
        <ele>22.2000000</ele>
        <time>2009-11-01T10:42:05Z</time>
      </trkpt>
      <trkpt lat="45.0744030" lon="10.0424630">
        <ele>22.6000000</ele>
        <time>2009-11-01T10:42:09Z</time>
      </trkpt>
      <trkpt lat="45.0742640" lon="10.0425300">
        <ele>22.2000000</ele>
        <time>2009-11-01T10:42:12Z</time>
      </trkpt>
      <trkpt lat="45.0741110" lon="10.0426900">
        <ele>24.0000000</ele>
        <time>2009-11-01T10:42:16Z</time>
      </trkpt>
      <trkpt lat="45.0740770" lon="10.0427350">
        <ele>24.2000000</ele>
        <time>2009-11-01T10:42:17Z</time>
      </trkpt>
      <trkpt lat="45.0740410" lon="10.0427810">
        <ele>24.4000000</ele>
        <time>2009-11-01T10:42:18Z</time>
      </trkpt>
      <trkpt lat="45.0738050" lon="10.0430970">
        <ele>25.4000000</ele>
        <time>2009-11-01T10:42:24Z</time>
      </trkpt>
      <trkpt lat="45.0736380" lon="10.0433050">
        <ele>25.6000000</ele>
        <time>2009-11-01T10:42:28Z</time>
      </trkpt>
      <trkpt lat="45.0735150" lon="10.0434740">
        <ele>25.8000000</ele>
        <time>2009-11-01T10:42:31Z</time>
      </trkpt>
      <trkpt lat="45.0734160" lon="10.0435720">
        <ele>25.8000000</ele>
        <time>2009-11-01T10:42:33Z</time>
      </trkpt>
      <trkpt lat="45.0733720" lon="10.0436260">
        <ele>26.0000000</ele>
        <time>2009-11-01T10:42:34Z</time>
      </trkpt>
      <trkpt lat="45.0732080" lon="10.0438550">
        <ele>28.4000000</ele>
        <time>2009-11-01T10:42:38Z</time>
      </trkpt>
      <trkpt lat="45.0729140" lon="10.0442580">
        <ele>31.0000000</ele>
        <time>2009-11-01T10:42:45Z</time>
      </trkpt>
      <trkpt lat="45.0726040" lon="10.0446700">
        <ele>34.2000000</ele>
        <time>2009-11-01T10:42:52Z</time>
      </trkpt>
      <trkpt lat="45.0723280" lon="10.0450160">
        <ele>32.8000000</ele>
        <time>2009-11-01T10:42:58Z</time>
      </trkpt>
      <trkpt lat="45.0720550" lon="10.0453490">
        <ele>31.6000000</ele>
        <time>2009-11-01T10:43:04Z</time>
      </trkpt>
      <trkpt lat="45.0717960" lon="10.0456550">
        <ele>29.8000000</ele>
        <time>2009-11-01T10:43:10Z</time>
      </trkpt>
      <trkpt lat="45.0717600" lon="10.0457110">
        <ele>29.6000000</ele>
        <time>2009-11-01T10:43:11Z</time>
      </trkpt>
      <trkpt lat="45.0715840" lon="10.0459830">
        <ele>29.6000000</ele>
        <time>2009-11-01T10:43:16Z</time>
      </trkpt>
      <trkpt lat="45.0715180" lon="10.0460910">
        <ele>29.8000000</ele>
        <time>2009-11-01T10:43:18Z</time>
      </trkpt>
      <trkpt lat="45.0714610" lon="10.0461970">
        <ele>29.6000000</ele>
        <time>2009-11-01T10:43:20Z</time>
      </trkpt>
      <trkpt lat="45.0714590" lon="10.0462970">
        <ele>30.0000000</ele>
        <time>2009-11-01T10:43:22Z</time>
      </trkpt>
      <trkpt lat="45.0715410" lon="10.0464020">
        <ele>31.0000000</ele>
        <time>2009-11-01T10:43:26Z</time>
      </trkpt>
      <trkpt lat="45.0716320" lon="10.0464220">
        <ele>30.8000000</ele>
        <time>2009-11-01T10:43:29Z</time>
      </trkpt>
      <trkpt lat="45.0717620" lon="10.0464400">
        <ele>31.2000000</ele>
        <time>2009-11-01T10:43:32Z</time>
      </trkpt>
      <trkpt lat="45.0717120" lon="10.0467610">
        <ele>30.8000000</ele>
        <time>2009-11-01T10:43:38Z</time>
      </trkpt>
      <trkpt lat="45.0716850" lon="10.0468110">
        <ele>30.8000000</ele>
        <time>2009-11-01T10:43:39Z</time>
      </trkpt>
      <trkpt lat="45.0714680" lon="10.0471920">
        <ele>30.8000000</ele>
        <time>2009-11-01T10:43:47Z</time>
      </trkpt>
      <trkpt lat="45.0714180" lon="10.0472850">
        <ele>31.0000000</ele>
        <time>2009-11-01T10:43:49Z</time>
      </trkpt>
      <trkpt lat="45.0713670" lon="10.0474250">
        <ele>32.0000000</ele>
        <time>2009-11-01T10:43:52Z</time>
      </trkpt>
      <trkpt lat="45.0714210" lon="10.0474010">
        <ele>32.6000000</ele>
        <time>2009-11-01T10:43:57Z</time>
      </trkpt>
      <trkpt lat="45.0714840" lon="10.0472850">
        <ele>32.6000000</ele>
        <time>2009-11-01T10:44:00Z</time>
      </trkpt>
      <trkpt lat="45.0717210" lon="10.0468950">
        <ele>32.8000000</ele>
        <time>2009-11-01T10:44:10Z</time>
      </trkpt>
      <trkpt lat="45.0719660" lon="10.0465200">
        <ele>33.2000000</ele>
        <time>2009-11-01T10:44:20Z</time>
      </trkpt>
      <trkpt lat="45.0723240" lon="10.0464420">
        <ele>32.8000000</ele>
        <time>2009-11-01T10:44:29Z</time>
      </trkpt>
      <trkpt lat="45.0727170" lon="10.0464260">
        <ele>32.6000000</ele>
        <time>2009-11-01T10:44:38Z</time>
      </trkpt>
      <trkpt lat="45.0730880" lon="10.0464130">
        <ele>32.0000000</ele>
        <time>2009-11-01T10:44:46Z</time>
      </trkpt>
      <trkpt lat="45.0734630" lon="10.0464010">
        <ele>31.4000000</ele>
        <time>2009-11-01T10:44:54Z</time>
      </trkpt>
      <trkpt lat="45.0738320" lon="10.0463770">
        <ele>31.2000000</ele>
        <time>2009-11-01T10:45:02Z</time>
      </trkpt>
      <trkpt lat="45.0739690" lon="10.0463730">
        <ele>31.2000000</ele>
        <time>2009-11-01T10:45:05Z</time>
      </trkpt>
      <trkpt lat="45.0742100" lon="10.0463650">
        <ele>31.0000000</ele>
        <time>2009-11-01T10:45:10Z</time>
      </trkpt>
      <trkpt lat="45.0745880" lon="10.0463670">
        <ele>30.4000000</ele>
        <time>2009-11-01T10:45:18Z</time>
      </trkpt>
      <trkpt lat="45.0749610" lon="10.0462420">
        <ele>30.4000000</ele>
        <time>2009-11-01T10:45:26Z</time>
      </trkpt>
      <trkpt lat="45.0753470" lon="10.0460860">
        <ele>30.2000000</ele>
        <time>2009-11-01T10:45:34Z</time>
      </trkpt>
      <trkpt lat="45.0757450" lon="10.0459500">
        <ele>30.8000000</ele>
        <time>2009-11-01T10:45:42Z</time>
      </trkpt>
      <trkpt lat="45.0761090" lon="10.0458560">
        <ele>30.8000000</ele>
        <time>2009-11-01T10:45:49Z</time>
      </trkpt>
      <trkpt lat="45.0762650" lon="10.0458290">
        <ele>31.0000000</ele>
        <time>2009-11-01T10:45:52Z</time>
      </trkpt>
      <trkpt lat="45.0765090" lon="10.0458400">
        <ele>31.0000000</ele>
        <time>2009-11-01T10:45:57Z</time>
      </trkpt>
      <trkpt lat="45.0768420" lon="10.0459010">
        <ele>31.6000000</ele>
        <time>2009-11-01T10:46:05Z</time>
      </trkpt>
      <trkpt lat="45.0768520" lon="10.0459390">
        <ele>31.6000000</ele>
        <time>2009-11-01T10:46:06Z</time>
      </trkpt>
      <trkpt lat="45.0767960" lon="10.0465150">
        <ele>29.4000000</ele>
        <time>2009-11-01T10:46:14Z</time>
      </trkpt>
      <trkpt lat="45.0767610" lon="10.0470700">
        <ele>28.4000000</ele>
        <time>2009-11-01T10:46:20Z</time>
      </trkpt>
      <trkpt lat="45.0767610" lon="10.0475860">
        <ele>28.6000000</ele>
        <time>2009-11-01T10:46:26Z</time>
      </trkpt>
      <trkpt lat="45.0767110" lon="10.0481160">
        <ele>29.0000000</ele>
        <time>2009-11-01T10:46:33Z</time>
      </trkpt>
      <trkpt lat="45.0766740" lon="10.0486540">
        <ele>29.6000000</ele>
        <time>2009-11-01T10:46:41Z</time>
      </trkpt>
      <trkpt lat="45.0766090" lon="10.0491790">
        <ele>30.2000000</ele>
        <time>2009-11-01T10:46:49Z</time>
      </trkpt>
      <trkpt lat="45.0765250" lon="10.0497290">
        <ele>30.8000000</ele>
        <time>2009-11-01T10:46:58Z</time>
      </trkpt>
      <trkpt lat="45.0764230" lon="10.0502100">
        <ele>30.6000000</ele>
        <time>2009-11-01T10:47:06Z</time>
      </trkpt>
      <trkpt lat="45.0764010" lon="10.0502700">
        <ele>30.6000000</ele>
        <time>2009-11-01T10:47:07Z</time>
      </trkpt>
      <trkpt lat="45.0762710" lon="10.0506860">
        <ele>29.8000000</ele>
        <time>2009-11-01T10:47:15Z</time>
      </trkpt>
      <trkpt lat="45.0761410" lon="10.0512770">
        <ele>33.0000000</ele>
        <time>2009-11-01T10:47:22Z</time>
      </trkpt>
      <trkpt lat="45.0760890" lon="10.0518170">
        <ele>35.0000000</ele>
        <time>2009-11-01T10:47:31Z</time>
      </trkpt>
      <trkpt lat="45.0760810" lon="10.0518890">
        <ele>34.8000000</ele>
        <time>2009-11-01T10:47:32Z</time>
      </trkpt>
      <trkpt lat="45.0759580" lon="10.0523750">
        <ele>32.8000000</ele>
        <time>2009-11-01T10:47:38Z</time>
      </trkpt>
      <trkpt lat="45.0758970" lon="10.0526270">
        <ele>31.6000000</ele>
        <time>2009-11-01T10:47:41Z</time>
      </trkpt>
      <trkpt lat="45.0760320" lon="10.0528200">
        <ele>31.2000000</ele>
        <time>2009-11-01T10:47:45Z</time>
      </trkpt>
      <trkpt lat="45.0762090" lon="10.0526250">
        <ele>30.8000000</ele>
        <time>2009-11-01T10:47:50Z</time>
      </trkpt>
      <trkpt lat="45.0762720" lon="10.0524240">
        <ele>30.2000000</ele>
        <time>2009-11-01T10:47:53Z</time>
      </trkpt>
      <trkpt lat="45.0764210" lon="10.0519610">
        <ele>29.4000000</ele>
        <time>2009-11-01T10:48:00Z</time>
      </trkpt>
      <trkpt lat="45.0765780" lon="10.0514910">
        <ele>29.0000000</ele>
        <time>2009-11-01T10:48:07Z</time>
      </trkpt>
      <trkpt lat="45.0766800" lon="10.0511220">
        <ele>29.4000000</ele>
        <time>2009-11-01T10:48:13Z</time>
      </trkpt>
      <trkpt lat="45.0766890" lon="10.0510660">
        <ele>29.4000000</ele>
        <time>2009-11-01T10:48:14Z</time>
      </trkpt>
      <trkpt lat="45.0766970" lon="10.0510120">
        <ele>29.2000000</ele>
        <time>2009-11-01T10:48:15Z</time>
      </trkpt>
      <trkpt lat="45.0767450" lon="10.0508480">
        <ele>30.0000000</ele>
        <time>2009-11-01T10:48:18Z</time>
      </trkpt>
      <trkpt lat="45.0768280" lon="10.0505770">
        <ele>30.0000000</ele>
        <time>2009-11-01T10:48:23Z</time>
      </trkpt>
      <trkpt lat="45.0768380" lon="10.0505180">
        <ele>30.2000000</ele>
        <time>2009-11-01T10:48:24Z</time>
      </trkpt>
      <trkpt lat="45.0768970" lon="10.0503400">
        <ele>30.4000000</ele>
        <time>2009-11-01T10:48:27Z</time>
      </trkpt>
      <trkpt lat="45.0769190" lon="10.0502200">
        <ele>29.8000000</ele>
        <time>2009-11-01T10:48:29Z</time>
      </trkpt>
      <trkpt lat="45.0769450" lon="10.0499870">
        <ele>28.4000000</ele>
        <time>2009-11-01T10:48:33Z</time>
      </trkpt>
      <trkpt lat="45.0771200" lon="10.0495180">
        <ele>29.0000000</ele>
        <time>2009-11-01T10:48:41Z</time>
      </trkpt>
      <trkpt lat="45.0772080" lon="10.0492690">
        <ele>30.8000000</ele>
        <time>2009-11-01T10:48:45Z</time>
      </trkpt>
      <trkpt lat="45.0772520" lon="10.0490460">
        <ele>30.0000000</ele>
        <time>2009-11-01T10:48:49Z</time>
      </trkpt>
      <trkpt lat="45.0772980" lon="10.0487790">
        <ele>28.8000000</ele>
        <time>2009-11-01T10:48:53Z</time>
      </trkpt>
      <trkpt lat="45.0773050" lon="10.0486470">
        <ele>28.2000000</ele>
        <time>2009-11-01T10:48:55Z</time>
      </trkpt>
      <trkpt lat="45.0773040" lon="10.0485180">
        <ele>27.6000000</ele>
        <time>2009-11-01T10:48:57Z</time>
      </trkpt>
      <trkpt lat="45.0773010" lon="10.0484590">
        <ele>27.2000000</ele>
        <time>2009-11-01T10:48:58Z</time>
      </trkpt>
      <trkpt lat="45.0772400" lon="10.0480640">
        <ele>26.0000000</ele>
        <time>2009-11-01T10:49:03Z</time>
      </trkpt>
      <trkpt lat="45.0772360" lon="10.0479750">
        <ele>25.8000000</ele>
        <time>2009-11-01T10:49:04Z</time>
      </trkpt>
      <trkpt lat="45.0775350" lon="10.0478400">
        <ele>26.8000000</ele>
        <time>2009-11-01T10:49:11Z</time>
      </trkpt>
      <trkpt lat="45.0775800" lon="10.0478660">
        <ele>27.0000000</ele>
        <time>2009-11-01T10:49:12Z</time>
      </trkpt>
      <trkpt lat="45.0776640" lon="10.0479160">
        <ele>26.8000000</ele>
        <time>2009-11-01T10:49:14Z</time>
      </trkpt>
      <trkpt lat="45.0778820" lon="10.0478040">
        <ele>28.0000000</ele>
        <time>2009-11-01T10:49:19Z</time>
      </trkpt>
      <trkpt lat="45.0777540" lon="10.0475360">
        <ele>27.4000000</ele>
        <time>2009-11-01T10:49:24Z</time>
      </trkpt>
      <trkpt lat="45.0776410" lon="10.0474810">
        <ele>27.6000000</ele>
        <time>2009-11-01T10:49:26Z</time>
      </trkpt>
      <trkpt lat="45.0772560" lon="10.0472640">
        <ele>26.6000000</ele>
        <time>2009-11-01T10:49:33Z</time>
      </trkpt>
      <trkpt lat="45.0770410" lon="10.0471530">
        <ele>26.2000000</ele>
        <time>2009-11-01T10:49:37Z</time>
      </trkpt>
      <trkpt lat="45.0769490" lon="10.0469510">
        <ele>26.8000000</ele>
        <time>2009-11-01T10:49:40Z</time>
      </trkpt>
      <trkpt lat="45.0769480" lon="10.0467870">
        <ele>27.2000000</ele>
        <time>2009-11-01T10:49:42Z</time>
      </trkpt>
      <trkpt lat="45.0769520" lon="10.0464220">
        <ele>28.0000000</ele>
        <time>2009-11-01T10:49:47Z</time>
      </trkpt>
      <trkpt lat="45.0769520" lon="10.0459320">
        <ele>30.8000000</ele>
        <time>2009-11-01T10:49:55Z</time>
      </trkpt>
      <trkpt lat="45.0769460" lon="10.0458820">
        <ele>31.4000000</ele>
        <time>2009-11-01T10:49:56Z</time>
      </trkpt>
      <trkpt lat="45.0769410" lon="10.0458330">
        <ele>31.8000000</ele>
        <time>2009-11-01T10:49:57Z</time>
      </trkpt>
      <trkpt lat="45.0769500" lon="10.0457020">
        <ele>32.4000000</ele>
        <time>2009-11-01T10:50:00Z</time>
      </trkpt>
      <trkpt lat="45.0771870" lon="10.0458650">
        <ele>31.0000000</ele>
        <time>2009-11-01T10:50:05Z</time>
      </trkpt>
      <trkpt lat="45.0772420" lon="10.0458970">
        <ele>30.8000000</ele>
        <time>2009-11-01T10:50:06Z</time>
      </trkpt>
      <trkpt lat="45.0775610" lon="10.0460790">
        <ele>30.2000000</ele>
        <time>2009-11-01T10:50:12Z</time>
      </trkpt>
      <trkpt lat="45.0779360" lon="10.0462930">
        <ele>29.4000000</ele>
        <time>2009-11-01T10:50:20Z</time>
      </trkpt>
      <trkpt lat="45.0783100" lon="10.0464850">
        <ele>28.6000000</ele>
        <time>2009-11-01T10:50:28Z</time>
      </trkpt>
      <trkpt lat="45.0786790" lon="10.0466450">
        <ele>28.0000000</ele>
        <time>2009-11-01T10:50:36Z</time>
      </trkpt>
      <trkpt lat="45.0790430" lon="10.0468000">
        <ele>28.0000000</ele>
        <time>2009-11-01T10:50:44Z</time>
      </trkpt>
      <trkpt lat="45.0794300" lon="10.0469440">
        <ele>28.0000000</ele>
        <time>2009-11-01T10:50:53Z</time>
      </trkpt>
      <trkpt lat="45.0796080" lon="10.0469620">
        <ele>28.0000000</ele>
        <time>2009-11-01T10:50:57Z</time>
      </trkpt>
      <trkpt lat="45.0798260" lon="10.0468880">
        <ele>28.6000000</ele>
        <time>2009-11-01T10:51:02Z</time>
      </trkpt>
      <trkpt lat="45.0799500" lon="10.0468310">
        <ele>29.0000000</ele>
        <time>2009-11-01T10:51:05Z</time>
      </trkpt>
      <trkpt lat="45.0801300" lon="10.0466860">
        <ele>31.4000000</ele>
        <time>2009-11-01T10:51:09Z</time>
      </trkpt>
      <trkpt lat="45.0801780" lon="10.0466550">
        <ele>32.0000000</ele>
        <time>2009-11-01T10:51:10Z</time>
      </trkpt>
      <trkpt lat="45.0803770" lon="10.0465760">
        <ele>32.6000000</ele>
        <time>2009-11-01T10:51:15Z</time>
      </trkpt>
      <trkpt lat="45.0805410" lon="10.0465990">
        <ele>31.4000000</ele>
        <time>2009-11-01T10:51:18Z</time>
      </trkpt>
      <trkpt lat="45.0808030" lon="10.0465620">
        <ele>29.2000000</ele>
        <time>2009-11-01T10:51:22Z</time>
      </trkpt>
      <trkpt lat="45.0809470" lon="10.0465120">
        <ele>28.8000000</ele>
        <time>2009-11-01T10:51:24Z</time>
      </trkpt>
      <trkpt lat="45.0813180" lon="10.0463530">
        <ele>28.0000000</ele>
        <time>2009-11-01T10:51:30Z</time>
      </trkpt>
      <trkpt lat="45.0816510" lon="10.0461030">
        <ele>28.2000000</ele>
        <time>2009-11-01T10:51:37Z</time>
      </trkpt>
      <trkpt lat="45.0819590" lon="10.0457910">
        <ele>29.2000000</ele>
        <time>2009-11-01T10:51:45Z</time>
      </trkpt>
      <trkpt lat="45.0822830" lon="10.0454600">
        <ele>29.8000000</ele>
        <time>2009-11-01T10:51:53Z</time>
      </trkpt>
      <trkpt lat="45.0826090" lon="10.0451270">
        <ele>30.6000000</ele>
        <time>2009-11-01T10:52:01Z</time>
      </trkpt>
      <trkpt lat="45.0826470" lon="10.0450900">
        <ele>30.8000000</ele>
        <time>2009-11-01T10:52:02Z</time>
      </trkpt>
      <trkpt lat="45.0829030" lon="10.0453450">
        <ele>31.0000000</ele>
        <time>2009-11-01T10:52:09Z</time>
      </trkpt>
      <trkpt lat="45.0829350" lon="10.0454160">
        <ele>31.2000000</ele>
        <time>2009-11-01T10:52:10Z</time>
      </trkpt>
      <trkpt lat="45.0831460" lon="10.0457910">
        <ele>32.0000000</ele>
        <time>2009-11-01T10:52:16Z</time>
      </trkpt>
      <trkpt lat="45.0833120" lon="10.0460750">
        <ele>32.6000000</ele>
        <time>2009-11-01T10:52:21Z</time>
      </trkpt>
      <trkpt lat="45.0833970" lon="10.0461530">
        <ele>32.4000000</ele>
        <time>2009-11-01T10:52:23Z</time>
      </trkpt>
      <trkpt lat="45.0836480" lon="10.0460620">
        <ele>32.4000000</ele>
        <time>2009-11-01T10:52:28Z</time>
      </trkpt>
      <trkpt lat="45.0836930" lon="10.0460300">
        <ele>32.6000000</ele>
        <time>2009-11-01T10:52:29Z</time>
      </trkpt>
      <trkpt lat="45.0837560" lon="10.0459680">
        <ele>32.8000000</ele>
        <time>2009-11-01T10:52:31Z</time>
      </trkpt>
      <trkpt lat="45.0839740" lon="10.0457630">
        <ele>30.8000000</ele>
        <time>2009-11-01T10:52:41Z</time>
      </trkpt>
      <trkpt lat="45.0840410" lon="10.0456770">
        <ele>29.6000000</ele>
        <time>2009-11-01T10:52:44Z</time>
      </trkpt>
      <trkpt lat="45.0840410" lon="10.0456540">
        <ele>29.6000000</ele>
        <time>2009-11-01T10:52:45Z</time>
      </trkpt>
      <trkpt lat="45.0843100" lon="10.0453690">
        <ele>27.8000000</ele>
        <time>2009-11-01T10:52:56Z</time>
      </trkpt>
      <trkpt lat="45.0846270" lon="10.0450980">
        <ele>29.8000000</ele>
        <time>2009-11-01T10:53:07Z</time>
      </trkpt>
      <trkpt lat="45.0849080" lon="10.0447740">
        <ele>30.0000000</ele>
        <time>2009-11-01T10:53:16Z</time>
      </trkpt>
      <trkpt lat="45.0850980" lon="10.0445250">
        <ele>30.0000000</ele>
        <time>2009-11-01T10:53:22Z</time>
      </trkpt>
      <trkpt lat="45.0852080" lon="10.0444150">
        <ele>30.0000000</ele>
        <time>2009-11-01T10:53:25Z</time>
      </trkpt>
      <trkpt lat="45.0855200" lon="10.0440980">
        <ele>30.4000000</ele>
        <time>2009-11-01T10:53:33Z</time>
      </trkpt>
      <trkpt lat="45.0857930" lon="10.0438120">
        <ele>31.0000000</ele>
        <time>2009-11-01T10:53:40Z</time>
      </trkpt>
      <trkpt lat="45.0858470" lon="10.0437870">
        <ele>31.2000000</ele>
        <time>2009-11-01T10:53:41Z</time>
      </trkpt>
      <trkpt lat="45.0859370" lon="10.0437500">
        <ele>32.0000000</ele>
        <time>2009-11-01T10:53:43Z</time>
      </trkpt>
      <trkpt lat="45.0860520" lon="10.0436000">
        <ele>31.8000000</ele>
        <time>2009-11-01T10:53:47Z</time>
      </trkpt>
      <trkpt lat="45.0861110" lon="10.0435130">
        <ele>32.0000000</ele>
        <time>2009-11-01T10:53:49Z</time>
      </trkpt>
      <trkpt lat="45.0861440" lon="10.0434730">
        <ele>32.0000000</ele>
        <time>2009-11-01T10:53:50Z</time>
      </trkpt>
      <trkpt lat="45.0864540" lon="10.0431070">
        <ele>32.0000000</ele>
        <time>2009-11-01T10:53:59Z</time>
      </trkpt>
      <trkpt lat="45.0867240" lon="10.0427710">
        <ele>32.0000000</ele>
        <time>2009-11-01T10:54:07Z</time>
      </trkpt>
      <trkpt lat="45.0870030" lon="10.0424380">
        <ele>32.0000000</ele>
        <time>2009-11-01T10:54:15Z</time>
      </trkpt>
      <trkpt lat="45.0872720" lon="10.0420740">
        <ele>32.4000000</ele>
        <time>2009-11-01T10:54:23Z</time>
      </trkpt>
      <trkpt lat="45.0873720" lon="10.0419390">
        <ele>32.4000000</ele>
        <time>2009-11-01T10:54:26Z</time>
      </trkpt>
      <trkpt lat="45.0874820" lon="10.0418220">
        <ele>32.4000000</ele>
        <time>2009-11-01T10:54:29Z</time>
      </trkpt>
      <trkpt lat="45.0875690" lon="10.0418350">
        <ele>31.6000000</ele>
        <time>2009-11-01T10:54:31Z</time>
      </trkpt>
      <trkpt lat="45.0876520" lon="10.0419000">
        <ele>30.4000000</ele>
        <time>2009-11-01T10:54:33Z</time>
      </trkpt>
      <trkpt lat="45.0879020" lon="10.0421260">
        <ele>29.0000000</ele>
        <time>2009-11-01T10:54:39Z</time>
      </trkpt>
      <trkpt lat="45.0882440" lon="10.0424380">
        <ele>27.8000000</ele>
        <time>2009-11-01T10:54:47Z</time>
      </trkpt>
      <trkpt lat="45.0885470" lon="10.0427410">
        <ele>29.0000000</ele>
        <time>2009-11-01T10:54:54Z</time>
      </trkpt>
      <trkpt lat="45.0888470" lon="10.0430240">
        <ele>30.6000000</ele>
        <time>2009-11-01T10:55:01Z</time>
      </trkpt>
      <trkpt lat="45.0889590" lon="10.0430650">
        <ele>30.2000000</ele>
        <time>2009-11-01T10:55:04Z</time>
      </trkpt>
      <trkpt lat="45.0889920" lon="10.0433110">
        <ele>32.2000000</ele>
        <time>2009-11-01T10:55:12Z</time>
      </trkpt>
      <trkpt lat="45.0889150" lon="10.0433910">
        <ele>32.0000000</ele>
        <time>2009-11-01T10:55:14Z</time>
      </trkpt>
      <trkpt lat="45.0886980" lon="10.0436280">
        <ele>30.8000000</ele>
        <time>2009-11-01T10:55:20Z</time>
      </trkpt>
      <trkpt lat="45.0884390" lon="10.0438710">
        <ele>30.0000000</ele>
        <time>2009-11-01T10:55:27Z</time>
      </trkpt>
      <trkpt lat="45.0883580" lon="10.0439180">
        <ele>28.8000000</ele>
        <time>2009-11-01T10:55:29Z</time>
      </trkpt>
      <trkpt lat="45.0882950" lon="10.0439630">
        <ele>28.4000000</ele>
        <time>2009-11-01T10:55:31Z</time>
      </trkpt>
      <trkpt lat="45.0883790" lon="10.0442090">
        <ele>30.0000000</ele>
        <time>2009-11-01T10:55:37Z</time>
      </trkpt>
      <trkpt lat="45.0884500" lon="10.0442850">
        <ele>30.4000000</ele>
        <time>2009-11-01T10:55:39Z</time>
      </trkpt>
      <trkpt lat="45.0885530" lon="10.0443560">
        <ele>32.0000000</ele>
        <time>2009-11-01T10:55:42Z</time>
      </trkpt>
      <trkpt lat="45.0887350" lon="10.0441720">
        <ele>32.8000000</ele>
        <time>2009-11-01T10:55:48Z</time>
      </trkpt>
      <trkpt lat="45.0887750" lon="10.0441440">
        <ele>33.0000000</ele>
        <time>2009-11-01T10:55:49Z</time>
      </trkpt>
      <trkpt lat="45.0891490" lon="10.0439380">
        <ele>33.8000000</ele>
        <time>2009-11-01T10:55:58Z</time>
      </trkpt>
      <trkpt lat="45.0893410" lon="10.0438550">
        <ele>34.0000000</ele>
        <time>2009-11-01T10:56:03Z</time>
      </trkpt>
      <trkpt lat="45.0895330" lon="10.0437910">
        <ele>34.2000000</ele>
        <time>2009-11-01T10:56:08Z</time>
      </trkpt>
      <trkpt lat="45.0897750" lon="10.0437000">
        <ele>34.2000000</ele>
        <time>2009-11-01T10:56:14Z</time>
      </trkpt>
      <trkpt lat="45.0898530" lon="10.0435590">
        <ele>34.2000000</ele>
        <time>2009-11-01T10:56:17Z</time>
      </trkpt>
      <trkpt lat="45.0898650" lon="10.0435010">
        <ele>34.2000000</ele>
        <time>2009-11-01T10:56:18Z</time>
      </trkpt>
      <trkpt lat="45.0899780" lon="10.0430380">
        <ele>34.6000000</ele>
        <time>2009-11-01T10:56:26Z</time>
      </trkpt>
      <trkpt lat="45.0901550" lon="10.0425370">
        <ele>34.8000000</ele>
        <time>2009-11-01T10:56:35Z</time>
      </trkpt>
      <trkpt lat="45.0903170" lon="10.0420770">
        <ele>35.2000000</ele>
        <time>2009-11-01T10:56:43Z</time>
      </trkpt>
      <trkpt lat="45.0904970" lon="10.0415640">
        <ele>35.2000000</ele>
        <time>2009-11-01T10:56:52Z</time>
      </trkpt>
      <trkpt lat="45.0906690" lon="10.0410590">
        <ele>35.0000000</ele>
        <time>2009-11-01T10:57:01Z</time>
      </trkpt>
      <trkpt lat="45.0908050" lon="10.0406780">
        <ele>35.0000000</ele>
        <time>2009-11-01T10:57:08Z</time>
      </trkpt>
      <trkpt lat="45.0908920" lon="10.0406120">
        <ele>34.2000000</ele>
        <time>2009-11-01T10:57:10Z</time>
      </trkpt>
      <trkpt lat="45.0910290" lon="10.0405560">
        <ele>34.2000000</ele>
        <time>2009-11-01T10:57:12Z</time>
      </trkpt>
      <trkpt lat="45.0912080" lon="10.0404560">
        <ele>34.2000000</ele>
        <time>2009-11-01T10:57:15Z</time>
      </trkpt>
      <trkpt lat="45.0912650" lon="10.0404480">
        <ele>34.2000000</ele>
        <time>2009-11-01T10:57:16Z</time>
      </trkpt>
      <trkpt lat="45.0916690" lon="10.0404580">
        <ele>33.4000000</ele>
        <time>2009-11-01T10:57:24Z</time>
      </trkpt>
      <trkpt lat="45.0919950" lon="10.0404780">
        <ele>32.6000000</ele>
        <time>2009-11-01T10:57:31Z</time>
      </trkpt>
      <trkpt lat="45.0920380" lon="10.0404980">
        <ele>32.6000000</ele>
        <time>2009-11-01T10:57:32Z</time>
      </trkpt>
      <trkpt lat="45.0921550" lon="10.0407730">
        <ele>32.8000000</ele>
        <time>2009-11-01T10:57:37Z</time>
      </trkpt>
      <trkpt lat="45.0921710" lon="10.0409020">
        <ele>33.0000000</ele>
        <time>2009-11-01T10:57:39Z</time>
      </trkpt>
      <trkpt lat="45.0921900" lon="10.0409580">
        <ele>32.8000000</ele>
        <time>2009-11-01T10:57:40Z</time>
      </trkpt>
      <trkpt lat="45.0923510" lon="10.0410180">
        <ele>33.2000000</ele>
        <time>2009-11-01T10:57:44Z</time>
      </trkpt>
      <trkpt lat="45.0923950" lon="10.0410150">
        <ele>33.2000000</ele>
        <time>2009-11-01T10:57:45Z</time>
      </trkpt>
      <trkpt lat="45.0925730" lon="10.0409970">
        <ele>33.0000000</ele>
        <time>2009-11-01T10:57:49Z</time>
      </trkpt>
      <trkpt lat="45.0928450" lon="10.0409250">
        <ele>32.0000000</ele>
        <time>2009-11-01T10:57:55Z</time>
      </trkpt>
      <trkpt lat="45.0929300" lon="10.0408810">
        <ele>32.2000000</ele>
        <time>2009-11-01T10:57:57Z</time>
      </trkpt>
      <trkpt lat="45.0929760" lon="10.0405930">
        <ele>30.0000000</ele>
        <time>2009-11-01T10:58:02Z</time>
      </trkpt>
      <trkpt lat="45.0929750" lon="10.0403830">
        <ele>28.0000000</ele>
        <time>2009-11-01T10:58:05Z</time>
      </trkpt>
      <trkpt lat="45.0929920" lon="10.0399350">
        <ele>22.6000000</ele>
        <time>2009-11-01T10:58:11Z</time>
      </trkpt>
      <trkpt lat="45.0930170" lon="10.0398550">
        <ele>23.2000000</ele>
        <time>2009-11-01T10:58:12Z</time>
      </trkpt>
      <trkpt lat="45.0927760" lon="10.0396660">
        <ele>31.4000000</ele>
        <time>2009-11-01T10:58:18Z</time>
      </trkpt>
      <trkpt lat="45.0927170" lon="10.0396570">
        <ele>32.2000000</ele>
        <time>2009-11-01T10:58:19Z</time>
      </trkpt>
      <trkpt lat="45.0925640" lon="10.0396200">
        <ele>32.0000000</ele>
        <time>2009-11-01T10:58:22Z</time>
      </trkpt>
      <trkpt lat="45.0923200" lon="10.0396400">
        <ele>31.8000000</ele>
        <time>2009-11-01T10:58:27Z</time>
      </trkpt>
      <trkpt lat="45.0920960" lon="10.0397170">
        <ele>30.0000000</ele>
        <time>2009-11-01T10:58:32Z</time>
      </trkpt>
      <trkpt lat="45.0919630" lon="10.0398040">
        <ele>28.6000000</ele>
        <time>2009-11-01T10:58:35Z</time>
      </trkpt>
      <trkpt lat="45.0918670" lon="10.0398520">
        <ele>28.2000000</ele>
        <time>2009-11-01T10:58:37Z</time>
      </trkpt>
      <trkpt lat="45.0915820" lon="10.0398590">
        <ele>26.2000000</ele>
        <time>2009-11-01T10:58:43Z</time>
      </trkpt>
      <trkpt lat="45.0913030" lon="10.0398360">
        <ele>26.2000000</ele>
        <time>2009-11-01T10:58:49Z</time>
      </trkpt>
      <trkpt lat="45.0912180" lon="10.0398750">
        <ele>26.0000000</ele>
        <time>2009-11-01T10:58:51Z</time>
      </trkpt>
      <trkpt lat="45.0911270" lon="10.0400930">
        <ele>25.8000000</ele>
        <time>2009-11-01T10:58:55Z</time>
      </trkpt>
      <trkpt lat="45.0910830" lon="10.0402160">
        <ele>26.2000000</ele>
        <time>2009-11-01T10:58:57Z</time>
      </trkpt>
      <trkpt lat="45.0910070" lon="10.0403000">
        <ele>27.0000000</ele>
        <time>2009-11-01T10:58:59Z</time>
      </trkpt>
      <trkpt lat="45.0909840" lon="10.0401620">
        <ele>28.4000000</ele>
        <time>2009-11-01T10:59:04Z</time>
      </trkpt>
      <trkpt lat="45.0910830" lon="10.0398850">
        <ele>29.4000000</ele>
        <time>2009-11-01T10:59:09Z</time>
      </trkpt>
      <trkpt lat="45.0912480" lon="10.0394090">
        <ele>30.6000000</ele>
        <time>2009-11-01T10:59:17Z</time>
      </trkpt>
      <trkpt lat="45.0914080" lon="10.0389370">
        <ele>31.4000000</ele>
        <time>2009-11-01T10:59:25Z</time>
      </trkpt>
      <trkpt lat="45.0915640" lon="10.0384740">
        <ele>32.2000000</ele>
        <time>2009-11-01T10:59:33Z</time>
      </trkpt>
      <trkpt lat="45.0917220" lon="10.0380170">
        <ele>33.6000000</ele>
        <time>2009-11-01T10:59:41Z</time>
      </trkpt>
      <trkpt lat="45.0918810" lon="10.0375500">
        <ele>34.2000000</ele>
        <time>2009-11-01T10:59:49Z</time>
      </trkpt>
      <trkpt lat="45.0920360" lon="10.0370790">
        <ele>35.2000000</ele>
        <time>2009-11-01T10:59:57Z</time>
      </trkpt>
      <trkpt lat="45.0921930" lon="10.0366030">
        <ele>36.0000000</ele>
        <time>2009-11-01T11:00:05Z</time>
      </trkpt>
      <trkpt lat="45.0923550" lon="10.0361270">
        <ele>37.0000000</ele>
        <time>2009-11-01T11:00:13Z</time>
      </trkpt>
      <trkpt lat="45.0924470" lon="10.0359080">
        <ele>37.2000000</ele>
        <time>2009-11-01T11:00:17Z</time>
      </trkpt>
      <trkpt lat="45.0926230" lon="10.0358830">
        <ele>37.0000000</ele>
        <time>2009-11-01T11:00:21Z</time>
      </trkpt>
      <trkpt lat="45.0927120" lon="10.0359240">
        <ele>36.8000000</ele>
        <time>2009-11-01T11:00:23Z</time>
      </trkpt>
      <trkpt lat="45.0929790" lon="10.0360150">
        <ele>36.6000000</ele>
        <time>2009-11-01T11:00:29Z</time>
      </trkpt>
      <trkpt lat="45.0933600" lon="10.0360710">
        <ele>36.4000000</ele>
        <time>2009-11-01T11:00:37Z</time>
      </trkpt>
      <trkpt lat="45.0937430" lon="10.0361220">
        <ele>36.2000000</ele>
        <time>2009-11-01T11:00:45Z</time>
      </trkpt>
      <trkpt lat="45.0941280" lon="10.0361780">
        <ele>36.2000000</ele>
        <time>2009-11-01T11:00:53Z</time>
      </trkpt>
      <trkpt lat="45.0945080" lon="10.0362320">
        <ele>36.0000000</ele>
        <time>2009-11-01T11:01:01Z</time>
      </trkpt>
      <trkpt lat="45.0948750" lon="10.0362540">
        <ele>35.6000000</ele>
        <time>2009-11-01T11:01:09Z</time>
      </trkpt>
      <trkpt lat="45.0951220" lon="10.0359210">
        <ele>32.0000000</ele>
        <time>2009-11-01T11:01:18Z</time>
      </trkpt>
      <trkpt lat="45.0952320" lon="10.0359340">
        <ele>31.0000000</ele>
        <time>2009-11-01T11:01:21Z</time>
      </trkpt>
      <trkpt lat="45.0955000" lon="10.0360110">
        <ele>30.0000000</ele>
        <time>2009-11-01T11:01:28Z</time>
      </trkpt>
      <trkpt lat="45.0958590" lon="10.0358910">
        <ele>30.4000000</ele>
        <time>2009-11-01T11:01:36Z</time>
      </trkpt>
      <trkpt lat="45.0959960" lon="10.0358700">
        <ele>30.6000000</ele>
        <time>2009-11-01T11:01:39Z</time>
      </trkpt>
      <trkpt lat="45.0961600" lon="10.0359210">
        <ele>30.2000000</ele>
        <time>2009-11-01T11:01:43Z</time>
      </trkpt>
      <trkpt lat="45.0962350" lon="10.0359600">
        <ele>30.0000000</ele>
        <time>2009-11-01T11:01:45Z</time>
      </trkpt>
      <trkpt lat="45.0965970" lon="10.0361620">
        <ele>30.2000000</ele>
        <time>2009-11-01T11:01:55Z</time>
      </trkpt>
      <trkpt lat="45.0969170" lon="10.0364200">
        <ele>32.0000000</ele>
        <time>2009-11-01T11:02:04Z</time>
      </trkpt>
      <trkpt lat="45.0970390" lon="10.0366760">
        <ele>34.8000000</ele>
        <time>2009-11-01T11:02:10Z</time>
      </trkpt>
      <trkpt lat="45.0970900" lon="10.0367640">
        <ele>35.2000000</ele>
        <time>2009-11-01T11:02:13Z</time>
      </trkpt>
      <trkpt lat="45.0971500" lon="10.0367370">
        <ele>35.2000000</ele>
        <time>2009-11-01T11:02:15Z</time>
      </trkpt>
      <trkpt lat="45.0972050" lon="10.0366560">
        <ele>35.0000000</ele>
        <time>2009-11-01T11:02:17Z</time>
      </trkpt>
      <trkpt lat="45.0974200" lon="10.0363530">
        <ele>34.6000000</ele>
        <time>2009-11-01T11:02:24Z</time>
      </trkpt>
      <trkpt lat="45.0975220" lon="10.0362360">
        <ele>34.4000000</ele>
        <time>2009-11-01T11:02:27Z</time>
      </trkpt>
      <trkpt lat="45.0977280" lon="10.0363420">
        <ele>34.2000000</ele>
        <time>2009-11-01T11:02:33Z</time>
      </trkpt>
      <trkpt lat="45.0977570" lon="10.0363840">
        <ele>34.0000000</ele>
        <time>2009-11-01T11:02:34Z</time>
      </trkpt>
      <trkpt lat="45.0979910" lon="10.0367840">
        <ele>34.0000000</ele>
        <time>2009-11-01T11:02:42Z</time>
      </trkpt>
      <trkpt lat="45.0982330" lon="10.0371890">
        <ele>34.4000000</ele>
        <time>2009-11-01T11:02:50Z</time>
      </trkpt>
      <trkpt lat="45.0984960" lon="10.0376230">
        <ele>34.8000000</ele>
        <time>2009-11-01T11:02:59Z</time>
      </trkpt>
      <trkpt lat="45.0987370" lon="10.0380140">
        <ele>35.4000000</ele>
        <time>2009-11-01T11:03:07Z</time>
      </trkpt>
      <trkpt lat="45.0990260" lon="10.0383670">
        <ele>36.0000000</ele>
        <time>2009-11-01T11:03:16Z</time>
      </trkpt>
      <trkpt lat="45.0992020" lon="10.0384890">
        <ele>35.6000000</ele>
        <time>2009-11-01T11:03:21Z</time>
      </trkpt>
      <trkpt lat="45.0993580" lon="10.0385840">
        <ele>37.2000000</ele>
        <time>2009-11-01T11:03:25Z</time>
      </trkpt>
      <trkpt lat="45.0994410" lon="10.0386080">
        <ele>36.6000000</ele>
        <time>2009-11-01T11:03:27Z</time>
      </trkpt>
      <trkpt lat="45.0997530" lon="10.0386320">
        <ele>35.2000000</ele>
        <time>2009-11-01T11:03:34Z</time>
      </trkpt>
      <trkpt lat="45.0998890" lon="10.0386400">
        <ele>34.8000000</ele>
        <time>2009-11-01T11:03:37Z</time>
      </trkpt>
      <trkpt lat="45.1000600" lon="10.0386730">
        <ele>34.6000000</ele>
        <time>2009-11-01T11:03:41Z</time>
      </trkpt>
      <trkpt lat="45.1001580" lon="10.0386540">
        <ele>34.0000000</ele>
        <time>2009-11-01T11:03:43Z</time>
      </trkpt>
      <trkpt lat="45.1002970" lon="10.0386170">
        <ele>33.8000000</ele>
        <time>2009-11-01T11:03:46Z</time>
      </trkpt>
      <trkpt lat="45.1004720" lon="10.0384030">
        <ele>33.8000000</ele>
        <time>2009-11-01T11:03:51Z</time>
      </trkpt>
      <trkpt lat="45.1006490" lon="10.0383310">
        <ele>33.6000000</ele>
        <time>2009-11-01T11:03:55Z</time>
      </trkpt>
      <trkpt lat="45.1008360" lon="10.0383170">
        <ele>33.4000000</ele>
        <time>2009-11-01T11:03:59Z</time>
      </trkpt>
      <trkpt lat="45.1012300" lon="10.0382880">
        <ele>33.0000000</ele>
        <time>2009-11-01T11:04:07Z</time>
      </trkpt>
      <trkpt lat="45.1016000" lon="10.0382580">
        <ele>33.0000000</ele>
        <time>2009-11-01T11:04:15Z</time>
      </trkpt>
      <trkpt lat="45.1019700" lon="10.0382130">
        <ele>32.8000000</ele>
        <time>2009-11-01T11:04:24Z</time>
      </trkpt>
      <trkpt lat="45.1023600" lon="10.0381270">
        <ele>33.0000000</ele>
        <time>2009-11-01T11:04:32Z</time>
      </trkpt>
      <trkpt lat="45.1027200" lon="10.0380220">
        <ele>31.0000000</ele>
        <time>2009-11-01T11:04:39Z</time>
      </trkpt>
      <trkpt lat="45.1030740" lon="10.0378870">
        <ele>29.8000000</ele>
        <time>2009-11-01T11:04:46Z</time>
      </trkpt>
      <trkpt lat="45.1034420" lon="10.0377510">
        <ele>29.8000000</ele>
        <time>2009-11-01T11:04:53Z</time>
      </trkpt>
      <trkpt lat="45.1038250" lon="10.0376610">
        <ele>31.4000000</ele>
        <time>2009-11-01T11:05:01Z</time>
      </trkpt>
      <trkpt lat="45.1042230" lon="10.0376030">
        <ele>33.0000000</ele>
        <time>2009-11-01T11:05:09Z</time>
      </trkpt>
      <trkpt lat="45.1046220" lon="10.0375470">
        <ele>33.8000000</ele>
        <time>2009-11-01T11:05:17Z</time>
      </trkpt>
      <trkpt lat="45.1049870" lon="10.0374630">
        <ele>33.8000000</ele>
        <time>2009-11-01T11:05:24Z</time>
      </trkpt>
      <trkpt lat="45.1050850" lon="10.0374050">
        <ele>34.0000000</ele>
        <time>2009-11-01T11:05:26Z</time>
      </trkpt>
      <trkpt lat="45.1053090" lon="10.0371960">
        <ele>34.4000000</ele>
        <time>2009-11-01T11:05:31Z</time>
      </trkpt>
      <trkpt lat="45.1056140" lon="10.0368640">
        <ele>33.6000000</ele>
        <time>2009-11-01T11:05:38Z</time>
      </trkpt>
      <trkpt lat="45.1058800" lon="10.0366150">
        <ele>31.6000000</ele>
        <time>2009-11-01T11:05:43Z</time>
      </trkpt>
      <trkpt lat="45.1059400" lon="10.0365740">
        <ele>31.4000000</ele>
        <time>2009-11-01T11:05:44Z</time>
      </trkpt>
      <trkpt lat="45.1062550" lon="10.0363530">
        <ele>29.6000000</ele>
        <time>2009-11-01T11:05:50Z</time>
      </trkpt>
      <trkpt lat="45.1063110" lon="10.0363210">
        <ele>30.0000000</ele>
        <time>2009-11-01T11:05:51Z</time>
      </trkpt>
      <trkpt lat="45.1064860" lon="10.0366910">
        <ele>30.8000000</ele>
        <time>2009-11-01T11:05:57Z</time>
      </trkpt>
      <trkpt lat="45.1065110" lon="10.0367610">
        <ele>31.0000000</ele>
        <time>2009-11-01T11:05:58Z</time>
      </trkpt>
      <trkpt lat="45.1066800" lon="10.0372720">
        <ele>31.8000000</ele>
        <time>2009-11-01T11:06:05Z</time>
      </trkpt>
      <trkpt lat="45.1067470" lon="10.0374960">
        <ele>33.4000000</ele>
        <time>2009-11-01T11:06:08Z</time>
      </trkpt>
      <trkpt lat="45.1067750" lon="10.0376030">
        <ele>35.0000000</ele>
        <time>2009-11-01T11:06:10Z</time>
      </trkpt>
      <trkpt lat="45.1068680" lon="10.0377480">
        <ele>35.8000000</ele>
        <time>2009-11-01T11:06:13Z</time>
      </trkpt>
      <trkpt lat="45.1070100" lon="10.0379250">
        <ele>36.0000000</ele>
        <time>2009-11-01T11:06:17Z</time>
      </trkpt>
      <trkpt lat="45.1071770" lon="10.0378910">
        <ele>34.0000000</ele>
        <time>2009-11-01T11:06:21Z</time>
      </trkpt>
      <trkpt lat="45.1073570" lon="10.0375250">
        <ele>33.2000000</ele>
        <time>2009-11-01T11:06:25Z</time>
      </trkpt>
      <trkpt lat="45.1074060" lon="10.0374280">
        <ele>33.6000000</ele>
        <time>2009-11-01T11:06:26Z</time>
      </trkpt>
      <trkpt lat="45.1076370" lon="10.0369930">
        <ele>35.2000000</ele>
        <time>2009-11-01T11:06:31Z</time>
      </trkpt>
      <trkpt lat="45.1078640" lon="10.0365490">
        <ele>35.2000000</ele>
        <time>2009-11-01T11:06:37Z</time>
      </trkpt>
      <trkpt lat="45.1081150" lon="10.0361290">
        <ele>35.0000000</ele>
        <time>2009-11-01T11:06:44Z</time>
      </trkpt>
      <trkpt lat="45.1083090" lon="10.0358330">
        <ele>35.0000000</ele>
        <time>2009-11-01T11:06:52Z</time>
      </trkpt>
      <trkpt lat="45.1083380" lon="10.0357960">
        <ele>35.4000000</ele>
        <time>2009-11-01T11:06:55Z</time>
      </trkpt>
      <trkpt lat="45.1083450" lon="10.0358410">
        <ele>35.6000000</ele>
        <time>2009-11-01T11:07:02Z</time>
      </trkpt>
      <trkpt lat="45.1083330" lon="10.0358590">
        <ele>35.4000000</ele>
        <time>2009-11-01T11:07:03Z</time>
      </trkpt>
      <trkpt lat="45.1082760" lon="10.0359220">
        <ele>35.0000000</ele>
        <time>2009-11-01T11:07:06Z</time>
      </trkpt>
      <trkpt lat="45.1081420" lon="10.0361640">
        <ele>34.2000000</ele>
        <time>2009-11-01T11:07:15Z</time>
      </trkpt>
      <trkpt lat="45.1081320" lon="10.0361870">
        <ele>34.6000000</ele>
        <time>2009-11-01T11:07:17Z</time>
      </trkpt>
      <trkpt lat="45.1081130" lon="10.0362530">
        <ele>35.0000000</ele>
        <time>2009-11-01T11:07:22Z</time>
      </trkpt>
      <trkpt lat="45.1080750" lon="10.0363610">
        <ele>38.6000000</ele>
        <time>2009-11-01T11:07:28Z</time>
      </trkpt>
      <trkpt lat="45.1080520" lon="10.0364070">
        <ele>38.6000000</ele>
        <time>2009-11-01T11:07:31Z</time>
      </trkpt>
      <trkpt lat="45.1080550" lon="10.0364640">
        <ele>38.0000000</ele>
        <time>2009-11-01T11:07:34Z</time>
      </trkpt>
      <trkpt lat="45.1080900" lon="10.0365210">
        <ele>37.4000000</ele>
        <time>2009-11-01T11:07:38Z</time>
      </trkpt>
      <trkpt lat="45.1081190" lon="10.0364930">
        <ele>34.2000000</ele>
        <time>2009-11-01T11:07:45Z</time>
      </trkpt>
      <trkpt lat="45.1081100" lon="10.0364730">
        <ele>33.8000000</ele>
        <time>2009-11-01T11:07:50Z</time>
      </trkpt>
    </trkseg>
  </trk>

</gpx>
